<?xml version="1.0" encoding="UTF-8" standalone="no" ?>
<gpx xmlns="http://www.topografix.com/GPX/1/1" xmlns:xsi="http://www.w3.org/2001/XMLSchema-instance" xsi:schemaLocation="http://www.topografix.com/GPX/1/1 http://www.topografix.com/GPX/1/1/gpx.xsd" version="1.1" creator="VisuGPX - https://www.visugpx.com">
  <metadata>
    <name>Double Ecluse</name>
    <desc><![CDATA[Double Ecluse]]></desc>
  </metadata>
  <trk>
    <name><![CDATA[DOUBLE ECLUSE - AVANNE]]></name>
    <trkseg>
      <trkpt lat="47.20162" lon="5.96204">
        <ele>235.1</ele>
        <time>2012-04-05T12:03:25Z</time>
      </trkpt>
      <trkpt lat="47.20162" lon="5.96204">
        <ele>282.8</ele>
        <time>2012-04-05T12:03:30Z</time>
      </trkpt>
      <trkpt lat="47.20162" lon="5.96204">
        <ele>235.1</ele>
        <time>2012-04-05T12:03:43Z</time>
      </trkpt>
      <trkpt lat="47.20162" lon="5.96204">
        <ele>235.1</ele>
        <time>2012-04-05T12:03:45Z</time>
      </trkpt>
      <trkpt lat="47.20162" lon="5.96204">
        <ele>235.1</ele>
        <time>2012-04-05T12:03:56Z</time>
      </trkpt>
      <trkpt lat="47.20162" lon="5.96204">
        <ele>235.1</ele>
        <time>2012-04-05T12:04:13Z</time>
      </trkpt>
      <trkpt lat="47.20162" lon="5.96204">
        <ele>235.1</ele>
        <time>2012-04-05T12:04:24Z</time>
      </trkpt>
      <trkpt lat="47.20162" lon="5.96204">
        <ele>235.1</ele>
        <time>2012-04-05T12:05:53Z</time>
      </trkpt>
      <trkpt lat="47.20136" lon="5.96212">
        <ele>279.5</ele>
        <time>2012-04-05T12:05:58Z</time>
      </trkpt>
      <trkpt lat="47.2013" lon="5.9621">
        <ele>281</ele>
        <time>2012-04-05T12:06:02Z</time>
      </trkpt>
      <trkpt lat="47.20117" lon="5.96213">
        <ele>280.9</ele>
        <time>2012-04-05T12:06:08Z</time>
      </trkpt>
      <trkpt lat="47.20109" lon="5.96214">
        <ele>281.6</ele>
        <time>2012-04-05T12:06:12Z</time>
      </trkpt>
      <trkpt lat="47.20101" lon="5.96214">
        <ele>280</ele>
        <time>2012-04-05T12:06:14Z</time>
      </trkpt>
      <trkpt lat="47.20093" lon="5.96224">
        <ele>280.5</ele>
        <time>2012-04-05T12:06:15Z</time>
      </trkpt>
      <trkpt lat="47.20087" lon="5.96222">
        <ele>280.3</ele>
        <time>2012-04-05T12:06:19Z</time>
      </trkpt>
      <trkpt lat="47.20081" lon="5.96226">
        <ele>281.7</ele>
        <time>2012-04-05T12:06:23Z</time>
      </trkpt>
      <trkpt lat="47.20072" lon="5.96224">
        <ele>282.7</ele>
        <time>2012-04-05T12:06:30Z</time>
      </trkpt>
      <trkpt lat="47.20066" lon="5.96218">
        <ele>283.3</ele>
        <time>2012-04-05T12:06:34Z</time>
      </trkpt>
      <trkpt lat="47.20057" lon="5.96224">
        <ele>284.5</ele>
        <time>2012-04-05T12:06:38Z</time>
      </trkpt>
      <trkpt lat="47.20057" lon="5.96224">
        <ele>235.9</ele>
        <time>2012-04-05T12:06:49Z</time>
      </trkpt>
      <trkpt lat="47.20057" lon="5.96224">
        <ele>235.9</ele>
        <time>2012-04-05T12:07:08Z</time>
      </trkpt>
      <trkpt lat="47.20021" lon="5.9623">
        <ele>284.9</ele>
        <time>2012-04-05T12:07:11Z</time>
      </trkpt>
      <trkpt lat="47.20014" lon="5.96225">
        <ele>283.4</ele>
        <time>2012-04-05T12:07:21Z</time>
      </trkpt>
      <trkpt lat="47.20007" lon="5.96229">
        <ele>282.7</ele>
        <time>2012-04-05T12:07:24Z</time>
      </trkpt>
      <trkpt lat="47.2" lon="5.9623">
        <ele>282.2</ele>
        <time>2012-04-05T12:07:34Z</time>
      </trkpt>
      <trkpt lat="47.19994" lon="5.96232">
        <ele>280.5</ele>
        <time>2012-04-05T12:07:38Z</time>
      </trkpt>
      <trkpt lat="47.19994" lon="5.96232">
        <ele>232</ele>
        <time>2012-04-05T12:07:49Z</time>
      </trkpt>
      <trkpt lat="47.19994" lon="5.96232">
        <ele>232</ele>
        <time>2012-04-05T12:08:15Z</time>
      </trkpt>
      <trkpt lat="47.19978" lon="5.96234">
        <ele>278.4</ele>
        <time>2012-04-05T12:08:17Z</time>
      </trkpt>
      <trkpt lat="47.1997" lon="5.96236">
        <ele>278</ele>
        <time>2012-04-05T12:08:20Z</time>
      </trkpt>
      <trkpt lat="47.19963" lon="5.96236">
        <ele>277.3</ele>
        <time>2012-04-05T12:08:23Z</time>
      </trkpt>
      <trkpt lat="47.19956" lon="5.96229">
        <ele>277.2</ele>
        <time>2012-04-05T12:08:29Z</time>
      </trkpt>
      <trkpt lat="47.19956" lon="5.96229">
        <ele>232</ele>
        <time>2012-04-05T12:08:40Z</time>
      </trkpt>
      <trkpt lat="47.19956" lon="5.96229">
        <ele>232</ele>
        <time>2012-04-05T12:08:43Z</time>
      </trkpt>
      <trkpt lat="47.1994" lon="5.96225">
        <ele>276.1</ele>
        <time>2012-04-05T12:08:50Z</time>
      </trkpt>
      <trkpt lat="47.1994" lon="5.96225">
        <ele>232.3</ele>
        <time>2012-04-05T12:09:01Z</time>
      </trkpt>
      <trkpt lat="47.1994" lon="5.96225">
        <ele>232.3</ele>
        <time>2012-04-05T12:10:35Z</time>
      </trkpt>
      <trkpt lat="47.1994" lon="5.96225">
        <ele>232.3</ele>
        <time>2012-04-05T12:10:46Z</time>
      </trkpt>
      <trkpt lat="47.1994" lon="5.96225">
        <ele>232.3</ele>
        <time>2012-04-05T12:10:47Z</time>
      </trkpt>
      <trkpt lat="47.19922" lon="5.96224">
        <ele>282.2</ele>
        <time>2012-04-05T12:10:52Z</time>
      </trkpt>
      <trkpt lat="47.19914" lon="5.96224">
        <ele>281.1</ele>
        <time>2012-04-05T12:10:57Z</time>
      </trkpt>
      <trkpt lat="47.19908" lon="5.96222">
        <ele>282.7</ele>
        <time>2012-04-05T12:11:02Z</time>
      </trkpt>
      <trkpt lat="47.19904" lon="5.96214">
        <ele>283</ele>
        <time>2012-04-05T12:11:09Z</time>
      </trkpt>
      <trkpt lat="47.19905" lon="5.96204">
        <ele>283</ele>
        <time>2012-04-05T12:11:16Z</time>
      </trkpt>
      <trkpt lat="47.19905" lon="5.96195">
        <ele>281.8</ele>
        <time>2012-04-05T12:11:21Z</time>
      </trkpt>
      <trkpt lat="47.19905" lon="5.96185">
        <ele>280.7</ele>
        <time>2012-04-05T12:11:29Z</time>
      </trkpt>
      <trkpt lat="47.19904" lon="5.96175">
        <ele>280.1</ele>
        <time>2012-04-05T12:11:34Z</time>
      </trkpt>
      <trkpt lat="47.19906" lon="5.96163">
        <ele>281.7</ele>
        <time>2012-04-05T12:11:43Z</time>
      </trkpt>
      <trkpt lat="47.19906" lon="5.96152">
        <ele>281</ele>
        <time>2012-04-05T12:11:48Z</time>
      </trkpt>
      <trkpt lat="47.19901" lon="5.96143">
        <ele>282.2</ele>
        <time>2012-04-05T12:11:52Z</time>
      </trkpt>
      <trkpt lat="47.19898" lon="5.96133">
        <ele>280</ele>
        <time>2012-04-05T12:11:58Z</time>
      </trkpt>
      <trkpt lat="47.19893" lon="5.96125">
        <ele>278.5</ele>
        <time>2012-04-05T12:12:04Z</time>
      </trkpt>
      <trkpt lat="47.19892" lon="5.96114">
        <ele>279.7</ele>
        <time>2012-04-05T12:12:10Z</time>
      </trkpt>
      <trkpt lat="47.19889" lon="5.96105">
        <ele>279.4</ele>
        <time>2012-04-05T12:12:18Z</time>
      </trkpt>
      <trkpt lat="47.19886" lon="5.96095">
        <ele>279.1</ele>
        <time>2012-04-05T12:12:24Z</time>
      </trkpt>
      <trkpt lat="47.19882" lon="5.96087">
        <ele>279.8</ele>
        <time>2012-04-05T12:12:30Z</time>
      </trkpt>
      <trkpt lat="47.1988" lon="5.96077">
        <ele>282.5</ele>
        <time>2012-04-05T12:12:37Z</time>
      </trkpt>
      <trkpt lat="47.19875" lon="5.96069">
        <ele>282.8</ele>
        <time>2012-04-05T12:12:43Z</time>
      </trkpt>
      <trkpt lat="47.19869" lon="5.96064">
        <ele>280.9</ele>
        <time>2012-04-05T12:12:47Z</time>
      </trkpt>
      <trkpt lat="47.19865" lon="5.96053">
        <ele>280.8</ele>
        <time>2012-04-05T12:12:54Z</time>
      </trkpt>
      <trkpt lat="47.1986" lon="5.96046">
        <ele>280.1</ele>
        <time>2012-04-05T12:13:03Z</time>
      </trkpt>
      <trkpt lat="47.19856" lon="5.96037">
        <ele>279.7</ele>
        <time>2012-04-05T12:13:08Z</time>
      </trkpt>
      <trkpt lat="47.1985" lon="5.9603">
        <ele>279.9</ele>
        <time>2012-04-05T12:13:13Z</time>
      </trkpt>
      <trkpt lat="47.19846" lon="5.9602">
        <ele>280</ele>
        <time>2012-04-05T12:13:19Z</time>
      </trkpt>
      <trkpt lat="47.19842" lon="5.96011">
        <ele>280</ele>
        <time>2012-04-05T12:13:24Z</time>
      </trkpt>
      <trkpt lat="47.19836" lon="5.96006">
        <ele>279</ele>
        <time>2012-04-05T12:13:35Z</time>
      </trkpt>
      <trkpt lat="47.19833" lon="5.95998">
        <ele>276</ele>
        <time>2012-04-05T12:13:39Z</time>
      </trkpt>
      <trkpt lat="47.1983" lon="5.95986">
        <ele>276.6</ele>
        <time>2012-04-05T12:13:47Z</time>
      </trkpt>
      <trkpt lat="47.19826" lon="5.95978">
        <ele>275.9</ele>
        <time>2012-04-05T12:13:50Z</time>
      </trkpt>
      <trkpt lat="47.1982" lon="5.95973">
        <ele>277.2</ele>
        <time>2012-04-05T12:13:54Z</time>
      </trkpt>
      <trkpt lat="47.19814" lon="5.95969">
        <ele>278.2</ele>
        <time>2012-04-05T12:13:58Z</time>
      </trkpt>
      <trkpt lat="47.19808" lon="5.95964">
        <ele>279.3</ele>
        <time>2012-04-05T12:14:04Z</time>
      </trkpt>
      <trkpt lat="47.19803" lon="5.95959">
        <ele>279.1</ele>
        <time>2012-04-05T12:14:09Z</time>
      </trkpt>
      <trkpt lat="47.19796" lon="5.95956">
        <ele>277.3</ele>
        <time>2012-04-05T12:14:16Z</time>
      </trkpt>
      <trkpt lat="47.19788" lon="5.95954">
        <ele>277.9</ele>
        <time>2012-04-05T12:14:21Z</time>
      </trkpt>
      <trkpt lat="47.19783" lon="5.95948">
        <ele>278.5</ele>
        <time>2012-04-05T12:14:27Z</time>
      </trkpt>
      <trkpt lat="47.19776" lon="5.95944">
        <ele>280.9</ele>
        <time>2012-04-05T12:14:33Z</time>
      </trkpt>
      <trkpt lat="47.19769" lon="5.95943">
        <ele>280.4</ele>
        <time>2012-04-05T12:14:39Z</time>
      </trkpt>
      <trkpt lat="47.19762" lon="5.95941">
        <ele>279.8</ele>
        <time>2012-04-05T12:14:44Z</time>
      </trkpt>
      <trkpt lat="47.19755" lon="5.9594">
        <ele>279.8</ele>
        <time>2012-04-05T12:14:51Z</time>
      </trkpt>
      <trkpt lat="47.19749" lon="5.95943">
        <ele>279.9</ele>
        <time>2012-04-05T12:14:55Z</time>
      </trkpt>
      <trkpt lat="47.19742" lon="5.95941">
        <ele>280.7</ele>
        <time>2012-04-05T12:15:00Z</time>
      </trkpt>
      <trkpt lat="47.19735" lon="5.95942">
        <ele>281</ele>
        <time>2012-04-05T12:15:03Z</time>
      </trkpt>
      <trkpt lat="47.19728" lon="5.9594">
        <ele>281.1</ele>
        <time>2012-04-05T12:15:09Z</time>
      </trkpt>
      <trkpt lat="47.1972" lon="5.95943">
        <ele>280</ele>
        <time>2012-04-05T12:15:15Z</time>
      </trkpt>
      <trkpt lat="47.19714" lon="5.95945">
        <ele>280</ele>
        <time>2012-04-05T12:15:21Z</time>
      </trkpt>
      <trkpt lat="47.19707" lon="5.95942">
        <ele>280.7</ele>
        <time>2012-04-05T12:15:26Z</time>
      </trkpt>
      <trkpt lat="47.19701" lon="5.95944">
        <ele>281</ele>
        <time>2012-04-05T12:15:31Z</time>
      </trkpt>
      <trkpt lat="47.19694" lon="5.95947">
        <ele>280</ele>
        <time>2012-04-05T12:15:36Z</time>
      </trkpt>
      <trkpt lat="47.19687" lon="5.95944">
        <ele>279.3</ele>
        <time>2012-04-05T12:15:44Z</time>
      </trkpt>
      <trkpt lat="47.19681" lon="5.95942">
        <ele>279.9</ele>
        <time>2012-04-05T12:15:49Z</time>
      </trkpt>
      <trkpt lat="47.19673" lon="5.95942">
        <ele>278.8</ele>
        <time>2012-04-05T12:15:55Z</time>
      </trkpt>
      <trkpt lat="47.19666" lon="5.9594">
        <ele>280.7</ele>
        <time>2012-04-05T12:16:01Z</time>
      </trkpt>
      <trkpt lat="47.19659" lon="5.9594">
        <ele>281.3</ele>
        <time>2012-04-05T12:16:07Z</time>
      </trkpt>
      <trkpt lat="47.19653" lon="5.95937">
        <ele>280.2</ele>
        <time>2012-04-05T12:16:12Z</time>
      </trkpt>
      <trkpt lat="47.19645" lon="5.95939">
        <ele>278.9</ele>
        <time>2012-04-05T12:16:19Z</time>
      </trkpt>
      <trkpt lat="47.19637" lon="5.95939">
        <ele>278.2</ele>
        <time>2012-04-05T12:16:25Z</time>
      </trkpt>
      <trkpt lat="47.1963" lon="5.95941">
        <ele>278.3</ele>
        <time>2012-04-05T12:16:28Z</time>
      </trkpt>
      <trkpt lat="47.19623" lon="5.95941">
        <ele>278.5</ele>
        <time>2012-04-05T12:16:36Z</time>
      </trkpt>
      <trkpt lat="47.19617" lon="5.95942">
        <ele>278.6</ele>
        <time>2012-04-05T12:16:40Z</time>
      </trkpt>
      <trkpt lat="47.19609" lon="5.95942">
        <ele>279.9</ele>
        <time>2012-04-05T12:16:47Z</time>
      </trkpt>
      <trkpt lat="47.19602" lon="5.95939">
        <ele>278.4</ele>
        <time>2012-04-05T12:16:55Z</time>
      </trkpt>
      <trkpt lat="47.19595" lon="5.95939">
        <ele>278.3</ele>
        <time>2012-04-05T12:16:59Z</time>
      </trkpt>
      <trkpt lat="47.19589" lon="5.95939">
        <ele>279.2</ele>
        <time>2012-04-05T12:17:06Z</time>
      </trkpt>
      <trkpt lat="47.19582" lon="5.95936">
        <ele>279.4</ele>
        <time>2012-04-05T12:17:13Z</time>
      </trkpt>
      <trkpt lat="47.19575" lon="5.95935">
        <ele>280.7</ele>
        <time>2012-04-05T12:17:19Z</time>
      </trkpt>
      <trkpt lat="47.19568" lon="5.95936">
        <ele>281.5</ele>
        <time>2012-04-05T12:17:25Z</time>
      </trkpt>
      <trkpt lat="47.19561" lon="5.95934">
        <ele>281.7</ele>
        <time>2012-04-05T12:17:30Z</time>
      </trkpt>
      <trkpt lat="47.19555" lon="5.9593">
        <ele>280.1</ele>
        <time>2012-04-05T12:17:35Z</time>
      </trkpt>
      <trkpt lat="47.19547" lon="5.9593">
        <ele>280.5</ele>
        <time>2012-04-05T12:17:42Z</time>
      </trkpt>
      <trkpt lat="47.1954" lon="5.95931">
        <ele>281.4</ele>
        <time>2012-04-05T12:17:47Z</time>
      </trkpt>
      <trkpt lat="47.19534" lon="5.95935">
        <ele>282.5</ele>
        <time>2012-04-05T12:17:51Z</time>
      </trkpt>
      <trkpt lat="47.19526" lon="5.95937">
        <ele>283.5</ele>
        <time>2012-04-05T12:17:55Z</time>
      </trkpt>
      <trkpt lat="47.19518" lon="5.95936">
        <ele>281.8</ele>
        <time>2012-04-05T12:18:03Z</time>
      </trkpt>
      <trkpt lat="47.19511" lon="5.95934">
        <ele>280.4</ele>
        <time>2012-04-05T12:18:10Z</time>
      </trkpt>
      <trkpt lat="47.19503" lon="5.95935">
        <ele>281.9</ele>
        <time>2012-04-05T12:18:15Z</time>
      </trkpt>
      <trkpt lat="47.19497" lon="5.95933">
        <ele>282.4</ele>
        <time>2012-04-05T12:18:20Z</time>
      </trkpt>
      <trkpt lat="47.1949" lon="5.95934">
        <ele>282.9</ele>
        <time>2012-04-05T12:18:25Z</time>
      </trkpt>
      <trkpt lat="47.19484" lon="5.95933">
        <ele>282.1</ele>
        <time>2012-04-05T12:18:31Z</time>
      </trkpt>
      <trkpt lat="47.19477" lon="5.95929">
        <ele>281.4</ele>
        <time>2012-04-05T12:18:38Z</time>
      </trkpt>
      <trkpt lat="47.19471" lon="5.95931">
        <ele>281.2</ele>
        <time>2012-04-05T12:18:44Z</time>
      </trkpt>
      <trkpt lat="47.19464" lon="5.95932">
        <ele>281.4</ele>
        <time>2012-04-05T12:18:51Z</time>
      </trkpt>
      <trkpt lat="47.19458" lon="5.95934">
        <ele>281.9</ele>
        <time>2012-04-05T12:18:55Z</time>
      </trkpt>
      <trkpt lat="47.1945" lon="5.95936">
        <ele>280</ele>
        <time>2012-04-05T12:19:03Z</time>
      </trkpt>
      <trkpt lat="47.19443" lon="5.95938">
        <ele>281.9</ele>
        <time>2012-04-05T12:19:08Z</time>
      </trkpt>
      <trkpt lat="47.19435" lon="5.9594">
        <ele>282.6</ele>
        <time>2012-04-05T12:19:18Z</time>
      </trkpt>
      <trkpt lat="47.19429" lon="5.95943">
        <ele>284.7</ele>
        <time>2012-04-05T12:19:23Z</time>
      </trkpt>
      <trkpt lat="47.1942" lon="5.95946">
        <ele>286.9</ele>
        <time>2012-04-05T12:19:30Z</time>
      </trkpt>
      <trkpt lat="47.19413" lon="5.95947">
        <ele>286.6</ele>
        <time>2012-04-05T12:19:35Z</time>
      </trkpt>
      <trkpt lat="47.19408" lon="5.95954">
        <ele>286.9</ele>
        <time>2012-04-05T12:19:40Z</time>
      </trkpt>
      <trkpt lat="47.19402" lon="5.9596">
        <ele>285.3</ele>
        <time>2012-04-05T12:19:44Z</time>
      </trkpt>
      <trkpt lat="47.19396" lon="5.95965">
        <ele>285.3</ele>
        <time>2012-04-05T12:19:49Z</time>
      </trkpt>
      <trkpt lat="47.19389" lon="5.95969">
        <ele>284.7</ele>
        <time>2012-04-05T12:19:54Z</time>
      </trkpt>
      <trkpt lat="47.19384" lon="5.95973">
        <ele>282.6</ele>
        <time>2012-04-05T12:20:02Z</time>
      </trkpt>
      <trkpt lat="47.19377" lon="5.95981">
        <ele>281.3</ele>
        <time>2012-04-05T12:20:14Z</time>
      </trkpt>
      <trkpt lat="47.19372" lon="5.95989">
        <ele>282.6</ele>
        <time>2012-04-05T12:20:19Z</time>
      </trkpt>
      <trkpt lat="47.19366" lon="5.95995">
        <ele>282.9</ele>
        <time>2012-04-05T12:20:25Z</time>
      </trkpt>
      <trkpt lat="47.19362" lon="5.96003">
        <ele>284.7</ele>
        <time>2012-04-05T12:20:31Z</time>
      </trkpt>
      <trkpt lat="47.19362" lon="5.96003">
        <ele>234.1</ele>
        <time>2012-04-05T12:20:43Z</time>
      </trkpt>
      <trkpt lat="47.19362" lon="5.96003">
        <ele>234.1</ele>
        <time>2012-04-05T12:20:44Z</time>
      </trkpt>
      <trkpt lat="47.19355" lon="5.96021">
        <ele>285</ele>
        <time>2012-04-05T12:20:49Z</time>
      </trkpt>
      <trkpt lat="47.19349" lon="5.96027">
        <ele>286.1</ele>
        <time>2012-04-05T12:20:53Z</time>
      </trkpt>
      <trkpt lat="47.19344" lon="5.96034">
        <ele>286.4</ele>
        <time>2012-04-05T12:20:56Z</time>
      </trkpt>
      <trkpt lat="47.19339" lon="5.96042">
        <ele>286.1</ele>
        <time>2012-04-05T12:21:00Z</time>
      </trkpt>
      <trkpt lat="47.19335" lon="5.96049">
        <ele>286.4</ele>
        <time>2012-04-05T12:21:07Z</time>
      </trkpt>
      <trkpt lat="47.19335" lon="5.96049">
        <ele>234.8</ele>
        <time>2012-04-05T12:21:19Z</time>
      </trkpt>
      <trkpt lat="47.19335" lon="5.96049">
        <ele>234.8</ele>
        <time>2012-04-05T12:21:22Z</time>
      </trkpt>
      <trkpt lat="47.19326" lon="5.96064">
        <ele>286.9</ele>
        <time>2012-04-05T12:21:26Z</time>
      </trkpt>
      <trkpt lat="47.19319" lon="5.96071">
        <ele>286.1</ele>
        <time>2012-04-05T12:21:31Z</time>
      </trkpt>
      <trkpt lat="47.19314" lon="5.96079">
        <ele>286.7</ele>
        <time>2012-04-05T12:21:36Z</time>
      </trkpt>
      <trkpt lat="47.19309" lon="5.96087">
        <ele>286.7</ele>
        <time>2012-04-05T12:21:39Z</time>
      </trkpt>
      <trkpt lat="47.19304" lon="5.96095">
        <ele>285.2</ele>
        <time>2012-04-05T12:21:46Z</time>
      </trkpt>
      <trkpt lat="47.19301" lon="5.96104">
        <ele>283.7</ele>
        <time>2012-04-05T12:21:53Z</time>
      </trkpt>
      <trkpt lat="47.19296" lon="5.96111">
        <ele>284.2</ele>
        <time>2012-04-05T12:21:59Z</time>
      </trkpt>
      <trkpt lat="47.19291" lon="5.96121">
        <ele>284.2</ele>
        <time>2012-04-05T12:22:02Z</time>
      </trkpt>
      <trkpt lat="47.19285" lon="5.96129">
        <ele>284</ele>
        <time>2012-04-05T12:22:06Z</time>
      </trkpt>
      <trkpt lat="47.1928" lon="5.96136">
        <ele>285.1</ele>
        <time>2012-04-05T12:22:10Z</time>
      </trkpt>
      <trkpt lat="47.19276" lon="5.96144">
        <ele>284.9</ele>
        <time>2012-04-05T12:22:14Z</time>
      </trkpt>
      <trkpt lat="47.19271" lon="5.96149">
        <ele>284.6</ele>
        <time>2012-04-05T12:22:19Z</time>
      </trkpt>
      <trkpt lat="47.19267" lon="5.96159">
        <ele>285.3</ele>
        <time>2012-04-05T12:22:26Z</time>
      </trkpt>
      <trkpt lat="47.19261" lon="5.96165">
        <ele>287.8</ele>
        <time>2012-04-05T12:22:33Z</time>
      </trkpt>
      <trkpt lat="47.19256" lon="5.9617">
        <ele>287.8</ele>
        <time>2012-04-05T12:22:36Z</time>
      </trkpt>
      <trkpt lat="47.1925" lon="5.96176">
        <ele>288.7</ele>
        <time>2012-04-05T12:22:44Z</time>
      </trkpt>
      <trkpt lat="47.19247" lon="5.96186">
        <ele>290.8</ele>
        <time>2012-04-05T12:22:52Z</time>
      </trkpt>
      <trkpt lat="47.19245" lon="5.96194">
        <ele>289.5</ele>
        <time>2012-04-05T12:22:58Z</time>
      </trkpt>
      <trkpt lat="47.19239" lon="5.962">
        <ele>288.4</ele>
        <time>2012-04-05T12:23:03Z</time>
      </trkpt>
      <trkpt lat="47.19235" lon="5.9621">
        <ele>288.4</ele>
        <time>2012-04-05T12:23:07Z</time>
      </trkpt>
      <trkpt lat="47.19229" lon="5.96218">
        <ele>288.4</ele>
        <time>2012-04-05T12:23:12Z</time>
      </trkpt>
      <trkpt lat="47.19224" lon="5.96225">
        <ele>289</ele>
        <time>2012-04-05T12:23:19Z</time>
      </trkpt>
      <trkpt lat="47.1922" lon="5.96233">
        <ele>289.7</ele>
        <time>2012-04-05T12:23:25Z</time>
      </trkpt>
      <trkpt lat="47.19215" lon="5.9624">
        <ele>290.1</ele>
        <time>2012-04-05T12:23:29Z</time>
      </trkpt>
      <trkpt lat="47.1921" lon="5.96248">
        <ele>290.2</ele>
        <time>2012-04-05T12:23:34Z</time>
      </trkpt>
      <trkpt lat="47.1921" lon="5.96248">
        <ele>233.6</ele>
        <time>2012-04-05T12:23:46Z</time>
      </trkpt>
      <trkpt lat="47.1921" lon="5.96248">
        <ele>233.6</ele>
        <time>2012-04-05T12:23:50Z</time>
      </trkpt>
      <trkpt lat="47.19202" lon="5.96262">
        <ele>289.6</ele>
        <time>2012-04-05T12:23:54Z</time>
      </trkpt>
      <trkpt lat="47.19197" lon="5.96268">
        <ele>289.2</ele>
        <time>2012-04-05T12:23:56Z</time>
      </trkpt>
      <trkpt lat="47.19192" lon="5.96278">
        <ele>289.6</ele>
        <time>2012-04-05T12:24:02Z</time>
      </trkpt>
      <trkpt lat="47.19187" lon="5.96287">
        <ele>290.1</ele>
        <time>2012-04-05T12:24:07Z</time>
      </trkpt>
      <trkpt lat="47.19181" lon="5.96293">
        <ele>291.2</ele>
        <time>2012-04-05T12:24:10Z</time>
      </trkpt>
      <trkpt lat="47.19175" lon="5.963">
        <ele>291.6</ele>
        <time>2012-04-05T12:24:13Z</time>
      </trkpt>
      <trkpt lat="47.1917" lon="5.96308">
        <ele>288.7</ele>
        <time>2012-04-05T12:24:24Z</time>
      </trkpt>
      <trkpt lat="47.1917" lon="5.96308">
        <ele>235</ele>
        <time>2012-04-05T12:24:36Z</time>
      </trkpt>
      <trkpt lat="47.1917" lon="5.96308">
        <ele>235</ele>
        <time>2012-04-05T12:24:49Z</time>
      </trkpt>
      <trkpt lat="47.1916" lon="5.96326">
        <ele>291.1</ele>
        <time>2012-04-05T12:24:52Z</time>
      </trkpt>
      <trkpt lat="47.19155" lon="5.96332">
        <ele>292.2</ele>
        <time>2012-04-05T12:24:58Z</time>
      </trkpt>
      <trkpt lat="47.19151" lon="5.9634">
        <ele>293</ele>
        <time>2012-04-05T12:25:04Z</time>
      </trkpt>
      <trkpt lat="47.19145" lon="5.96347">
        <ele>294.1</ele>
        <time>2012-04-05T12:25:06Z</time>
      </trkpt>
      <trkpt lat="47.19141" lon="5.96355">
        <ele>295</ele>
        <time>2012-04-05T12:25:10Z</time>
      </trkpt>
      <trkpt lat="47.19136" lon="5.96363">
        <ele>294.9</ele>
        <time>2012-04-05T12:25:16Z</time>
      </trkpt>
      <trkpt lat="47.19129" lon="5.96368">
        <ele>295.3</ele>
        <time>2012-04-05T12:25:21Z</time>
      </trkpt>
      <trkpt lat="47.19124" lon="5.96376">
        <ele>292.7</ele>
        <time>2012-04-05T12:25:26Z</time>
      </trkpt>
      <trkpt lat="47.19119" lon="5.96381">
        <ele>293.3</ele>
        <time>2012-04-05T12:25:32Z</time>
      </trkpt>
      <trkpt lat="47.19112" lon="5.96385">
        <ele>292.2</ele>
        <time>2012-04-05T12:25:36Z</time>
      </trkpt>
      <trkpt lat="47.19107" lon="5.96391">
        <ele>292.7</ele>
        <time>2012-04-05T12:25:42Z</time>
      </trkpt>
      <trkpt lat="47.191" lon="5.96394">
        <ele>292.9</ele>
        <time>2012-04-05T12:25:47Z</time>
      </trkpt>
      <trkpt lat="47.19093" lon="5.96402">
        <ele>293.1</ele>
        <time>2012-04-05T12:25:52Z</time>
      </trkpt>
      <trkpt lat="47.19086" lon="5.9641">
        <ele>290.5</ele>
        <time>2012-04-05T12:25:57Z</time>
      </trkpt>
      <trkpt lat="47.19081" lon="5.96414">
        <ele>290.2</ele>
        <time>2012-04-05T12:26:00Z</time>
      </trkpt>
      <trkpt lat="47.19074" lon="5.9641">
        <ele>288.5</ele>
        <time>2012-04-05T12:26:03Z</time>
      </trkpt>
      <trkpt lat="47.19068" lon="5.96412">
        <ele>288</ele>
        <time>2012-04-05T12:26:06Z</time>
      </trkpt>
      <trkpt lat="47.19062" lon="5.96416">
        <ele>286.6</ele>
        <time>2012-04-05T12:26:11Z</time>
      </trkpt>
      <trkpt lat="47.19055" lon="5.9642">
        <ele>287.4</ele>
        <time>2012-04-05T12:26:16Z</time>
      </trkpt>
      <trkpt lat="47.19052" lon="5.96428">
        <ele>285.6</ele>
        <time>2012-04-05T12:26:20Z</time>
      </trkpt>
      <trkpt lat="47.19045" lon="5.9643">
        <ele>286.3</ele>
        <time>2012-04-05T12:26:26Z</time>
      </trkpt>
      <trkpt lat="47.19045" lon="5.9643">
        <ele>233.8</ele>
        <time>2012-04-05T12:26:38Z</time>
      </trkpt>
      <trkpt lat="47.19045" lon="5.9643">
        <ele>233.8</ele>
        <time>2012-04-05T12:26:46Z</time>
      </trkpt>
      <trkpt lat="47.1903" lon="5.9643">
        <ele>286.5</ele>
        <time>2012-04-05T12:26:47Z</time>
      </trkpt>
      <trkpt lat="47.19024" lon="5.96435">
        <ele>286.2</ele>
        <time>2012-04-05T12:26:50Z</time>
      </trkpt>
      <trkpt lat="47.19015" lon="5.96438">
        <ele>286.2</ele>
        <time>2012-04-05T12:26:53Z</time>
      </trkpt>
      <trkpt lat="47.19008" lon="5.96434">
        <ele>284.8</ele>
        <time>2012-04-05T12:26:59Z</time>
      </trkpt>
      <trkpt lat="47.19001" lon="5.96438">
        <ele>281.8</ele>
        <time>2012-04-05T12:27:04Z</time>
      </trkpt>
      <trkpt lat="47.18995" lon="5.9644">
        <ele>282.2</ele>
        <time>2012-04-05T12:27:08Z</time>
      </trkpt>
      <trkpt lat="47.18988" lon="5.96444">
        <ele>282.7</ele>
        <time>2012-04-05T12:27:11Z</time>
      </trkpt>
      <trkpt lat="47.1898" lon="5.96446">
        <ele>282.4</ele>
        <time>2012-04-05T12:27:16Z</time>
      </trkpt>
      <trkpt lat="47.1898" lon="5.96446">
        <ele>234</ele>
        <time>2012-04-05T12:27:28Z</time>
      </trkpt>
      <trkpt lat="47.1898" lon="5.96446">
        <ele>234</ele>
        <time>2012-04-05T12:27:28Z</time>
      </trkpt>
      <trkpt lat="47.18966" lon="5.9644">
        <ele>279.7</ele>
        <time>2012-04-05T12:27:32Z</time>
      </trkpt>
      <trkpt lat="47.18959" lon="5.96438">
        <ele>278.6</ele>
        <time>2012-04-05T12:27:38Z</time>
      </trkpt>
      <trkpt lat="47.18952" lon="5.96438">
        <ele>278.8</ele>
        <time>2012-04-05T12:27:41Z</time>
      </trkpt>
      <trkpt lat="47.18943" lon="5.96437">
        <ele>279.7</ele>
        <time>2012-04-05T12:27:46Z</time>
      </trkpt>
      <trkpt lat="47.18937" lon="5.96434">
        <ele>280.7</ele>
        <time>2012-04-05T12:27:53Z</time>
      </trkpt>
      <trkpt lat="47.18929" lon="5.96434">
        <ele>280.8</ele>
        <time>2012-04-05T12:28:01Z</time>
      </trkpt>
      <trkpt lat="47.18922" lon="5.96432">
        <ele>280.6</ele>
        <time>2012-04-05T12:28:06Z</time>
      </trkpt>
      <trkpt lat="47.18914" lon="5.96433">
        <ele>281.2</ele>
        <time>2012-04-05T12:28:10Z</time>
      </trkpt>
      <trkpt lat="47.18908" lon="5.96434">
        <ele>280.7</ele>
        <time>2012-04-05T12:28:17Z</time>
      </trkpt>
      <trkpt lat="47.18908" lon="5.96434">
        <ele>234.8</ele>
        <time>2012-04-05T12:28:28Z</time>
      </trkpt>
      <trkpt lat="47.18908" lon="5.96434">
        <ele>234.8</ele>
        <time>2012-04-05T12:28:29Z</time>
      </trkpt>
      <trkpt lat="47.18895" lon="5.96428">
        <ele>281.7</ele>
        <time>2012-04-05T12:28:32Z</time>
      </trkpt>
      <trkpt lat="47.18888" lon="5.96428">
        <ele>282.1</ele>
        <time>2012-04-05T12:28:35Z</time>
      </trkpt>
      <trkpt lat="47.1888" lon="5.96428">
        <ele>282.4</ele>
        <time>2012-04-05T12:28:40Z</time>
      </trkpt>
      <trkpt lat="47.18872" lon="5.96426">
        <ele>281.7</ele>
        <time>2012-04-05T12:28:46Z</time>
      </trkpt>
      <trkpt lat="47.18866" lon="5.96426">
        <ele>281.2</ele>
        <time>2012-04-05T12:28:51Z</time>
      </trkpt>
      <trkpt lat="47.18859" lon="5.9642">
        <ele>281.2</ele>
        <time>2012-04-05T12:28:59Z</time>
      </trkpt>
      <trkpt lat="47.18852" lon="5.9642">
        <ele>282.4</ele>
        <time>2012-04-05T12:29:03Z</time>
      </trkpt>
      <trkpt lat="47.18846" lon="5.96416">
        <ele>281.5</ele>
        <time>2012-04-05T12:29:07Z</time>
      </trkpt>
      <trkpt lat="47.1884" lon="5.96413">
        <ele>280.9</ele>
        <time>2012-04-05T12:29:10Z</time>
      </trkpt>
      <trkpt lat="47.18834" lon="5.96408">
        <ele>281.5</ele>
        <time>2012-04-05T12:29:16Z</time>
      </trkpt>
      <trkpt lat="47.18827" lon="5.96406">
        <ele>283.2</ele>
        <time>2012-04-05T12:29:22Z</time>
      </trkpt>
      <trkpt lat="47.18748" lon="5.96357">
        <ele>287.1</ele>
        <time>2012-04-05T12:30:31Z</time>
      </trkpt>
      <trkpt lat="47.18744" lon="5.96349">
        <ele>289.1</ele>
        <time>2012-04-05T12:30:38Z</time>
      </trkpt>
      <trkpt lat="47.18737" lon="5.96348">
        <ele>289.2</ele>
        <time>2012-04-05T12:30:41Z</time>
      </trkpt>
      <trkpt lat="47.18732" lon="5.9634">
        <ele>289.8</ele>
        <time>2012-04-05T12:30:47Z</time>
      </trkpt>
      <trkpt lat="47.18725" lon="5.96336">
        <ele>289.1</ele>
        <time>2012-04-05T12:30:53Z</time>
      </trkpt>
      <trkpt lat="47.18718" lon="5.96333">
        <ele>289.9</ele>
        <time>2012-04-05T12:31:01Z</time>
      </trkpt>
      <trkpt lat="47.18712" lon="5.96329">
        <ele>291</ele>
        <time>2012-04-05T12:31:05Z</time>
      </trkpt>
      <trkpt lat="47.18706" lon="5.96326">
        <ele>289.5</ele>
        <time>2012-04-05T12:31:10Z</time>
      </trkpt>
      <trkpt lat="47.18701" lon="5.9632">
        <ele>289.1</ele>
        <time>2012-04-05T12:31:17Z</time>
      </trkpt>
      <trkpt lat="47.18695" lon="5.96316">
        <ele>289.3</ele>
        <time>2012-04-05T12:31:22Z</time>
      </trkpt>
      <trkpt lat="47.18688" lon="5.96313">
        <ele>287.7</ele>
        <time>2012-04-05T12:31:25Z</time>
      </trkpt>
      <trkpt lat="47.18681" lon="5.96309">
        <ele>286.9</ele>
        <time>2012-04-05T12:31:34Z</time>
      </trkpt>
      <trkpt lat="47.18676" lon="5.963">
        <ele>287.3</ele>
        <time>2012-04-05T12:31:39Z</time>
      </trkpt>
      <trkpt lat="47.18672" lon="5.96294">
        <ele>289.6</ele>
        <time>2012-04-05T12:31:45Z</time>
      </trkpt>
      <trkpt lat="47.18666" lon="5.96285">
        <ele>290.3</ele>
        <time>2012-04-05T12:31:50Z</time>
      </trkpt>
      <trkpt lat="47.18659" lon="5.96279">
        <ele>291.9</ele>
        <time>2012-04-05T12:31:55Z</time>
      </trkpt>
      <trkpt lat="47.18651" lon="5.96273">
        <ele>290.4</ele>
        <time>2012-04-05T12:31:59Z</time>
      </trkpt>
      <trkpt lat="47.18647" lon="5.96265">
        <ele>292.5</ele>
        <time>2012-04-05T12:32:05Z</time>
      </trkpt>
      <trkpt lat="47.18644" lon="5.96257">
        <ele>292.6</ele>
        <time>2012-04-05T12:32:11Z</time>
      </trkpt>
      <trkpt lat="47.18638" lon="5.96251">
        <ele>291.7</ele>
        <time>2012-04-05T12:32:20Z</time>
      </trkpt>
      <trkpt lat="47.18633" lon="5.96243">
        <ele>291.6</ele>
        <time>2012-04-05T12:32:26Z</time>
      </trkpt>
      <trkpt lat="47.18627" lon="5.96236">
        <ele>291</ele>
        <time>2012-04-05T12:32:31Z</time>
      </trkpt>
      <trkpt lat="47.18622" lon="5.96228">
        <ele>290.6</ele>
        <time>2012-04-05T12:32:37Z</time>
      </trkpt>
      <trkpt lat="47.18618" lon="5.9622">
        <ele>289.8</ele>
        <time>2012-04-05T12:32:43Z</time>
      </trkpt>
      <trkpt lat="47.18614" lon="5.96211">
        <ele>288.1</ele>
        <time>2012-04-05T12:32:50Z</time>
      </trkpt>
      <trkpt lat="47.1861" lon="5.96203">
        <ele>285.7</ele>
        <time>2012-04-05T12:32:57Z</time>
      </trkpt>
      <trkpt lat="47.18604" lon="5.96196">
        <ele>285.9</ele>
        <time>2012-04-05T12:33:04Z</time>
      </trkpt>
      <trkpt lat="47.186" lon="5.96188">
        <ele>286</ele>
        <time>2012-04-05T12:33:08Z</time>
      </trkpt>
      <trkpt lat="47.18593" lon="5.96183">
        <ele>286.5</ele>
        <time>2012-04-05T12:33:16Z</time>
      </trkpt>
      <trkpt lat="47.18588" lon="5.96176">
        <ele>288.6</ele>
        <time>2012-04-05T12:33:18Z</time>
      </trkpt>
      <trkpt lat="47.18584" lon="5.96165">
        <ele>288.2</ele>
        <time>2012-04-05T12:33:27Z</time>
      </trkpt>
      <trkpt lat="47.18582" lon="5.96156">
        <ele>287.1</ele>
        <time>2012-04-05T12:33:33Z</time>
      </trkpt>
      <trkpt lat="47.18576" lon="5.9615">
        <ele>286.6</ele>
        <time>2012-04-05T12:33:42Z</time>
      </trkpt>
      <trkpt lat="47.18569" lon="5.96143">
        <ele>287.3</ele>
        <time>2012-04-05T12:33:47Z</time>
      </trkpt>
      <trkpt lat="47.18563" lon="5.96137">
        <ele>287.5</ele>
        <time>2012-04-05T12:33:51Z</time>
      </trkpt>
      <trkpt lat="47.18557" lon="5.9613">
        <ele>288.1</ele>
        <time>2012-04-05T12:33:59Z</time>
      </trkpt>
      <trkpt lat="47.18555" lon="5.96121">
        <ele>289.7</ele>
        <time>2012-04-05T12:34:03Z</time>
      </trkpt>
      <trkpt lat="47.18551" lon="5.96112">
        <ele>290.5</ele>
        <time>2012-04-05T12:34:07Z</time>
      </trkpt>
      <trkpt lat="47.18551" lon="5.96102">
        <ele>291.3</ele>
        <time>2012-04-05T12:34:11Z</time>
      </trkpt>
      <trkpt lat="47.18545" lon="5.96095">
        <ele>290.2</ele>
        <time>2012-04-05T12:34:17Z</time>
      </trkpt>
      <trkpt lat="47.18538" lon="5.96093">
        <ele>288.4</ele>
        <time>2012-04-05T12:34:23Z</time>
      </trkpt>
      <trkpt lat="47.18536" lon="5.96083">
        <ele>288.3</ele>
        <time>2012-04-05T12:34:27Z</time>
      </trkpt>
      <trkpt lat="47.18531" lon="5.96075">
        <ele>287.6</ele>
        <time>2012-04-05T12:34:34Z</time>
      </trkpt>
      <trkpt lat="47.18525" lon="5.96069">
        <ele>286.6</ele>
        <time>2012-04-05T12:34:39Z</time>
      </trkpt>
      <trkpt lat="47.18521" lon="5.96061">
        <ele>288.1</ele>
        <time>2012-04-05T12:34:45Z</time>
      </trkpt>
      <trkpt lat="47.18521" lon="5.96061">
        <ele>236.8</ele>
        <time>2012-04-05T12:34:57Z</time>
      </trkpt>
      <trkpt lat="47.18521" lon="5.96061">
        <ele>236.8</ele>
        <time>2012-04-05T12:35:03Z</time>
      </trkpt>
      <trkpt lat="47.18521" lon="5.96061">
        <ele>236.8</ele>
        <time>2012-04-05T12:35:14Z</time>
      </trkpt>
      <trkpt lat="47.18521" lon="5.96061">
        <ele>236.8</ele>
        <time>2012-04-05T12:36:00Z</time>
      </trkpt>
      <trkpt lat="47.18521" lon="5.96061">
        <ele>236.8</ele>
        <time>2012-04-05T12:36:12Z</time>
      </trkpt>
      <trkpt lat="47.18521" lon="5.96061">
        <ele>236.8</ele>
        <time>2012-04-05T12:36:13Z</time>
      </trkpt>
      <trkpt lat="47.18513" lon="5.96035">
        <ele>293.5</ele>
        <time>2012-04-05T12:36:16Z</time>
      </trkpt>
      <trkpt lat="47.1849" lon="5.96005">
        <ele>284.4</ele>
        <time>2012-04-05T12:38:24Z</time>
      </trkpt>
      <trkpt lat="47.18485" lon="5.95997">
        <ele>284.2</ele>
        <time>2012-04-05T12:38:28Z</time>
      </trkpt>
      <trkpt lat="47.18481" lon="5.9599">
        <ele>285.4</ele>
        <time>2012-04-05T12:38:34Z</time>
      </trkpt>
      <trkpt lat="47.18477" lon="5.95981">
        <ele>284.7</ele>
        <time>2012-04-05T12:38:41Z</time>
      </trkpt>
      <trkpt lat="47.18469" lon="5.95975">
        <ele>284.7</ele>
        <time>2012-04-05T12:38:45Z</time>
      </trkpt>
      <trkpt lat="47.18467" lon="5.95965">
        <ele>285.2</ele>
        <time>2012-04-05T12:38:50Z</time>
      </trkpt>
      <trkpt lat="47.18462" lon="5.95957">
        <ele>285.6</ele>
        <time>2012-04-05T12:38:54Z</time>
      </trkpt>
      <trkpt lat="47.18455" lon="5.9595">
        <ele>285.2</ele>
        <time>2012-04-05T12:38:59Z</time>
      </trkpt>
      <trkpt lat="47.18451" lon="5.9594">
        <ele>287.7</ele>
        <time>2012-04-05T12:39:07Z</time>
      </trkpt>
      <trkpt lat="47.18445" lon="5.95935">
        <ele>286.9</ele>
        <time>2012-04-05T12:39:14Z</time>
      </trkpt>
      <trkpt lat="47.1844" lon="5.95928">
        <ele>287.3</ele>
        <time>2012-04-05T12:39:21Z</time>
      </trkpt>
      <trkpt lat="47.18439" lon="5.95917">
        <ele>287.7</ele>
        <time>2012-04-05T12:39:26Z</time>
      </trkpt>
      <trkpt lat="47.18434" lon="5.95909">
        <ele>286.7</ele>
        <time>2012-04-05T12:39:33Z</time>
      </trkpt>
      <trkpt lat="47.1843" lon="5.95899">
        <ele>287</ele>
        <time>2012-04-05T12:39:41Z</time>
      </trkpt>
      <trkpt lat="47.18423" lon="5.95893">
        <ele>286.5</ele>
        <time>2012-04-05T12:39:46Z</time>
      </trkpt>
      <trkpt lat="47.18419" lon="5.95885">
        <ele>287.1</ele>
        <time>2012-04-05T12:39:50Z</time>
      </trkpt>
      <trkpt lat="47.18414" lon="5.95877">
        <ele>286.7</ele>
        <time>2012-04-05T12:39:55Z</time>
      </trkpt>
      <trkpt lat="47.18413" lon="5.95866">
        <ele>287.2</ele>
        <time>2012-04-05T12:40:00Z</time>
      </trkpt>
      <trkpt lat="47.1841" lon="5.95857">
        <ele>289.7</ele>
        <time>2012-04-05T12:40:08Z</time>
      </trkpt>
      <trkpt lat="47.18403" lon="5.95853">
        <ele>288.1</ele>
        <time>2012-04-05T12:40:12Z</time>
      </trkpt>
      <trkpt lat="47.18398" lon="5.95845">
        <ele>288.1</ele>
        <time>2012-04-05T12:40:16Z</time>
      </trkpt>
      <trkpt lat="47.18395" lon="5.95834">
        <ele>288.1</ele>
        <time>2012-04-05T12:40:24Z</time>
      </trkpt>
      <trkpt lat="47.18389" lon="5.95828">
        <ele>286.3</ele>
        <time>2012-04-05T12:40:35Z</time>
      </trkpt>
      <trkpt lat="47.18385" lon="5.95819">
        <ele>285.4</ele>
        <time>2012-04-05T12:40:43Z</time>
      </trkpt>
      <trkpt lat="47.18381" lon="5.95811">
        <ele>285.3</ele>
        <time>2012-04-05T12:40:47Z</time>
      </trkpt>
      <trkpt lat="47.18376" lon="5.95805">
        <ele>285.3</ele>
        <time>2012-04-05T12:40:58Z</time>
      </trkpt>
      <trkpt lat="47.18373" lon="5.95796">
        <ele>286.5</ele>
        <time>2012-04-05T12:41:01Z</time>
      </trkpt>
      <trkpt lat="47.18369" lon="5.95789">
        <ele>286.9</ele>
        <time>2012-04-05T12:41:06Z</time>
      </trkpt>
      <trkpt lat="47.18363" lon="5.95779">
        <ele>288.6</ele>
        <time>2012-04-05T12:41:16Z</time>
      </trkpt>
      <trkpt lat="47.18357" lon="5.95772">
        <ele>288</ele>
        <time>2012-04-05T12:41:20Z</time>
      </trkpt>
      <trkpt lat="47.18354" lon="5.95761">
        <ele>287</ele>
        <time>2012-04-05T12:41:31Z</time>
      </trkpt>
      <trkpt lat="47.18348" lon="5.9575">
        <ele>284.6</ele>
        <time>2012-04-05T12:41:36Z</time>
      </trkpt>
      <trkpt lat="47.18343" lon="5.95741">
        <ele>283.4</ele>
        <time>2012-04-05T12:41:40Z</time>
      </trkpt>
      <trkpt lat="47.18336" lon="5.95736">
        <ele>282.9</ele>
        <time>2012-04-05T12:41:43Z</time>
      </trkpt>
      <trkpt lat="47.1833" lon="5.95729">
        <ele>283.4</ele>
        <time>2012-04-05T12:41:49Z</time>
      </trkpt>
      <trkpt lat="47.18327" lon="5.9572">
        <ele>284.1</ele>
        <time>2012-04-05T12:41:51Z</time>
      </trkpt>
      <trkpt lat="47.18321" lon="5.95715">
        <ele>282.4</ele>
        <time>2012-04-05T12:41:56Z</time>
      </trkpt>
      <trkpt lat="47.18318" lon="5.95707">
        <ele>282.6</ele>
        <time>2012-04-05T12:42:00Z</time>
      </trkpt>
      <trkpt lat="47.18314" lon="5.95699">
        <ele>282.3</ele>
        <time>2012-04-05T12:42:05Z</time>
      </trkpt>
      <trkpt lat="47.18312" lon="5.9569">
        <ele>282.4</ele>
        <time>2012-04-05T12:42:10Z</time>
      </trkpt>
      <trkpt lat="47.18309" lon="5.95681">
        <ele>283.6</ele>
        <time>2012-04-05T12:42:15Z</time>
      </trkpt>
      <trkpt lat="47.18302" lon="5.95674">
        <ele>285</ele>
        <time>2012-04-05T12:42:21Z</time>
      </trkpt>
      <trkpt lat="47.18297" lon="5.95668">
        <ele>286.5</ele>
        <time>2012-04-05T12:42:26Z</time>
      </trkpt>
      <trkpt lat="47.1829" lon="5.95661">
        <ele>286.2</ele>
        <time>2012-04-05T12:42:32Z</time>
      </trkpt>
      <trkpt lat="47.18286" lon="5.95653">
        <ele>286.8</ele>
        <time>2012-04-05T12:42:35Z</time>
      </trkpt>
      <trkpt lat="47.18281" lon="5.95646">
        <ele>287.2</ele>
        <time>2012-04-05T12:42:41Z</time>
      </trkpt>
      <trkpt lat="47.1828" lon="5.95635">
        <ele>286.5</ele>
        <time>2012-04-05T12:42:47Z</time>
      </trkpt>
      <trkpt lat="47.18276" lon="5.95626">
        <ele>289.6</ele>
        <time>2012-04-05T12:42:51Z</time>
      </trkpt>
      <trkpt lat="47.18271" lon="5.95619">
        <ele>288.6</ele>
        <time>2012-04-05T12:42:57Z</time>
      </trkpt>
      <trkpt lat="47.18266" lon="5.9561">
        <ele>287.6</ele>
        <time>2012-04-05T12:43:03Z</time>
      </trkpt>
      <trkpt lat="47.18263" lon="5.95602">
        <ele>290.1</ele>
        <time>2012-04-05T12:43:11Z</time>
      </trkpt>
      <trkpt lat="47.18259" lon="5.95594">
        <ele>289.7</ele>
        <time>2012-04-05T12:43:16Z</time>
      </trkpt>
      <trkpt lat="47.18256" lon="5.95586">
        <ele>288.8</ele>
        <time>2012-04-05T12:43:22Z</time>
      </trkpt>
      <trkpt lat="47.18254" lon="5.95575">
        <ele>290.2</ele>
        <time>2012-04-05T12:43:27Z</time>
      </trkpt>
      <trkpt lat="47.18252" lon="5.95567">
        <ele>289.5</ele>
        <time>2012-04-05T12:43:32Z</time>
      </trkpt>
      <trkpt lat="47.1825" lon="5.95556">
        <ele>288.5</ele>
        <time>2012-04-05T12:43:38Z</time>
      </trkpt>
      <trkpt lat="47.18249" lon="5.95545">
        <ele>285.5</ele>
        <time>2012-04-05T12:43:48Z</time>
      </trkpt>
      <trkpt lat="47.18246" lon="5.95535">
        <ele>286.4</ele>
        <time>2012-04-05T12:43:53Z</time>
      </trkpt>
      <trkpt lat="47.18244" lon="5.95525">
        <ele>285.2</ele>
        <time>2012-04-05T12:43:57Z</time>
      </trkpt>
      <trkpt lat="47.1824" lon="5.95515">
        <ele>284.6</ele>
        <time>2012-04-05T12:44:02Z</time>
      </trkpt>
      <trkpt lat="47.18236" lon="5.95507">
        <ele>284.3</ele>
        <time>2012-04-05T12:44:06Z</time>
      </trkpt>
      <trkpt lat="47.18238" lon="5.95496">
        <ele>284.6</ele>
        <time>2012-04-05T12:44:11Z</time>
      </trkpt>
      <trkpt lat="47.18237" lon="5.95484">
        <ele>284.4</ele>
        <time>2012-04-05T12:44:18Z</time>
      </trkpt>
      <trkpt lat="47.18233" lon="5.95476">
        <ele>284.9</ele>
        <time>2012-04-05T12:44:24Z</time>
      </trkpt>
      <trkpt lat="47.18234" lon="5.95466">
        <ele>285.8</ele>
        <time>2012-04-05T12:44:30Z</time>
      </trkpt>
      <trkpt lat="47.18233" lon="5.95457">
        <ele>287.4</ele>
        <time>2012-04-05T12:44:35Z</time>
      </trkpt>
      <trkpt lat="47.18229" lon="5.95448">
        <ele>287.5</ele>
        <time>2012-04-05T12:44:39Z</time>
      </trkpt>
      <trkpt lat="47.18229" lon="5.95448">
        <ele>234.3</ele>
        <time>2012-04-05T12:44:51Z</time>
      </trkpt>
      <trkpt lat="47.18229" lon="5.95448">
        <ele>234.3</ele>
        <time>2012-04-05T12:45:00Z</time>
      </trkpt>
      <trkpt lat="47.18209" lon="5.95411">
        <ele>288.4</ele>
        <time>2012-04-05T12:45:04Z</time>
      </trkpt>
      <trkpt lat="47.18208" lon="5.95402">
        <ele>289.2</ele>
        <time>2012-04-05T12:45:11Z</time>
      </trkpt>
      <trkpt lat="47.18207" lon="5.9539">
        <ele>290.9</ele>
        <time>2012-04-05T12:45:15Z</time>
      </trkpt>
      <trkpt lat="47.18204" lon="5.95381">
        <ele>293.2</ele>
        <time>2012-04-05T12:45:19Z</time>
      </trkpt>
      <trkpt lat="47.18206" lon="5.95371">
        <ele>291.3</ele>
        <time>2012-04-05T12:45:26Z</time>
      </trkpt>
      <trkpt lat="47.18203" lon="5.9536">
        <ele>292.1</ele>
        <time>2012-04-05T12:45:31Z</time>
      </trkpt>
      <trkpt lat="47.18201" lon="5.95351">
        <ele>292.4</ele>
        <time>2012-04-05T12:45:36Z</time>
      </trkpt>
      <trkpt lat="47.18195" lon="5.95345">
        <ele>293.1</ele>
        <time>2012-04-05T12:45:40Z</time>
      </trkpt>
      <trkpt lat="47.18195" lon="5.95335">
        <ele>292.4</ele>
        <time>2012-04-05T12:45:47Z</time>
      </trkpt>
      <trkpt lat="47.18194" lon="5.95325">
        <ele>292.6</ele>
        <time>2012-04-05T12:45:53Z</time>
      </trkpt>
      <trkpt lat="47.18191" lon="5.95314">
        <ele>293.5</ele>
        <time>2012-04-05T12:46:01Z</time>
      </trkpt>
      <trkpt lat="47.18187" lon="5.95306">
        <ele>291.9</ele>
        <time>2012-04-05T12:46:07Z</time>
      </trkpt>
      <trkpt lat="47.18184" lon="5.95298">
        <ele>292.3</ele>
        <time>2012-04-05T12:46:10Z</time>
      </trkpt>
      <trkpt lat="47.18183" lon="5.95288">
        <ele>290.7</ele>
        <time>2012-04-05T12:46:15Z</time>
      </trkpt>
      <trkpt lat="47.18181" lon="5.95279">
        <ele>290.1</ele>
        <time>2012-04-05T12:46:20Z</time>
      </trkpt>
      <trkpt lat="47.18179" lon="5.9527">
        <ele>289</ele>
        <time>2012-04-05T12:46:30Z</time>
      </trkpt>
      <trkpt lat="47.18177" lon="5.95258">
        <ele>287.5</ele>
        <time>2012-04-05T12:46:37Z</time>
      </trkpt>
      <trkpt lat="47.18174" lon="5.95249">
        <ele>287.1</ele>
        <time>2012-04-05T12:46:40Z</time>
      </trkpt>
      <trkpt lat="47.18172" lon="5.95239">
        <ele>286.8</ele>
        <time>2012-04-05T12:46:44Z</time>
      </trkpt>
      <trkpt lat="47.18168" lon="5.9523">
        <ele>287.1</ele>
        <time>2012-04-05T12:46:49Z</time>
      </trkpt>
      <trkpt lat="47.18165" lon="5.95219">
        <ele>286.3</ele>
        <time>2012-04-05T12:46:56Z</time>
      </trkpt>
      <trkpt lat="47.18164" lon="5.9521">
        <ele>285.4</ele>
        <time>2012-04-05T12:47:01Z</time>
      </trkpt>
      <trkpt lat="47.18161" lon="5.95198">
        <ele>284.9</ele>
        <time>2012-04-05T12:47:07Z</time>
      </trkpt>
      <trkpt lat="47.18158" lon="5.95187">
        <ele>286.5</ele>
        <time>2012-04-05T12:47:13Z</time>
      </trkpt>
      <trkpt lat="47.18157" lon="5.95178">
        <ele>286.9</ele>
        <time>2012-04-05T12:47:18Z</time>
      </trkpt>
      <trkpt lat="47.18154" lon="5.95169">
        <ele>285.3</ele>
        <time>2012-04-05T12:47:23Z</time>
      </trkpt>
      <trkpt lat="47.18153" lon="5.9516">
        <ele>285.2</ele>
        <time>2012-04-05T12:47:28Z</time>
      </trkpt>
      <trkpt lat="47.18149" lon="5.95152">
        <ele>284.8</ele>
        <time>2012-04-05T12:47:33Z</time>
      </trkpt>
      <trkpt lat="47.18147" lon="5.95143">
        <ele>285.1</ele>
        <time>2012-04-05T12:47:39Z</time>
      </trkpt>
      <trkpt lat="47.18144" lon="5.95134">
        <ele>286.7</ele>
        <time>2012-04-05T12:47:44Z</time>
      </trkpt>
      <trkpt lat="47.1814" lon="5.95127">
        <ele>287.9</ele>
        <time>2012-04-05T12:47:49Z</time>
      </trkpt>
      <trkpt lat="47.18138" lon="5.95115">
        <ele>285.5</ele>
        <time>2012-04-05T12:47:56Z</time>
      </trkpt>
      <trkpt lat="47.18138" lon="5.95105">
        <ele>284.4</ele>
        <time>2012-04-05T12:48:03Z</time>
      </trkpt>
      <trkpt lat="47.18138" lon="5.95095">
        <ele>282.7</ele>
        <time>2012-04-05T12:48:10Z</time>
      </trkpt>
      <trkpt lat="47.18138" lon="5.95085">
        <ele>283.8</ele>
        <time>2012-04-05T12:48:16Z</time>
      </trkpt>
      <trkpt lat="47.18133" lon="5.95079">
        <ele>284.4</ele>
        <time>2012-04-05T12:48:19Z</time>
      </trkpt>
      <trkpt lat="47.1813" lon="5.95069">
        <ele>284.1</ele>
        <time>2012-04-05T12:48:23Z</time>
      </trkpt>
      <trkpt lat="47.18129" lon="5.95059">
        <ele>283.3</ele>
        <time>2012-04-05T12:48:28Z</time>
      </trkpt>
      <trkpt lat="47.18126" lon="5.9505">
        <ele>284.3</ele>
        <time>2012-04-05T12:48:34Z</time>
      </trkpt>
      <trkpt lat="47.18125" lon="5.9504">
        <ele>283.6</ele>
        <time>2012-04-05T12:48:42Z</time>
      </trkpt>
      <trkpt lat="47.18124" lon="5.95031">
        <ele>283</ele>
        <time>2012-04-05T12:48:47Z</time>
      </trkpt>
      <trkpt lat="47.1812" lon="5.95023">
        <ele>282.9</ele>
        <time>2012-04-05T12:48:52Z</time>
      </trkpt>
      <trkpt lat="47.18118" lon="5.95014">
        <ele>282.1</ele>
        <time>2012-04-05T12:48:55Z</time>
      </trkpt>
      <trkpt lat="47.18113" lon="5.95005">
        <ele>281.9</ele>
        <time>2012-04-05T12:49:01Z</time>
      </trkpt>
      <trkpt lat="47.18112" lon="5.94995">
        <ele>281</ele>
        <time>2012-04-05T12:49:07Z</time>
      </trkpt>
      <trkpt lat="47.1811" lon="5.94985">
        <ele>282.1</ele>
        <time>2012-04-05T12:49:13Z</time>
      </trkpt>
      <trkpt lat="47.1811" lon="5.94974">
        <ele>281.1</ele>
        <time>2012-04-05T12:49:21Z</time>
      </trkpt>
      <trkpt lat="47.18107" lon="5.94964">
        <ele>281.9</ele>
        <time>2012-04-05T12:49:27Z</time>
      </trkpt>
      <trkpt lat="47.18103" lon="5.94956">
        <ele>281.9</ele>
        <time>2012-04-05T12:49:33Z</time>
      </trkpt>
      <trkpt lat="47.18102" lon="5.94946">
        <ele>281.9</ele>
        <time>2012-04-05T12:49:38Z</time>
      </trkpt>
      <trkpt lat="47.18098" lon="5.94938">
        <ele>282</ele>
        <time>2012-04-05T12:49:45Z</time>
      </trkpt>
      <trkpt lat="47.18095" lon="5.94926">
        <ele>281.9</ele>
        <time>2012-04-05T12:49:52Z</time>
      </trkpt>
      <trkpt lat="47.18092" lon="5.94917">
        <ele>282.6</ele>
        <time>2012-04-05T12:49:55Z</time>
      </trkpt>
      <trkpt lat="47.18092" lon="5.94908">
        <ele>282.5</ele>
        <time>2012-04-05T12:50:01Z</time>
      </trkpt>
      <trkpt lat="47.18088" lon="5.949">
        <ele>282.4</ele>
        <time>2012-04-05T12:50:06Z</time>
      </trkpt>
      <trkpt lat="47.18087" lon="5.9489">
        <ele>281.9</ele>
        <time>2012-04-05T12:50:12Z</time>
      </trkpt>
      <trkpt lat="47.18085" lon="5.9488">
        <ele>283.1</ele>
        <time>2012-04-05T12:50:17Z</time>
      </trkpt>
      <trkpt lat="47.18082" lon="5.94871">
        <ele>283.6</ele>
        <time>2012-04-05T12:50:21Z</time>
      </trkpt>
      <trkpt lat="47.18082" lon="5.94862">
        <ele>283.2</ele>
        <time>2012-04-05T12:50:28Z</time>
      </trkpt>
      <trkpt lat="47.18081" lon="5.94852">
        <ele>284.8</ele>
        <time>2012-04-05T12:50:34Z</time>
      </trkpt>
      <trkpt lat="47.18084" lon="5.94844">
        <ele>285.2</ele>
        <time>2012-04-05T12:50:41Z</time>
      </trkpt>
      <trkpt lat="47.18084" lon="5.94844">
        <ele>234</ele>
        <time>2012-04-05T12:50:53Z</time>
      </trkpt>
      <trkpt lat="47.18084" lon="5.94844">
        <ele>234</ele>
        <time>2012-04-05T12:55:40Z</time>
      </trkpt>
      <trkpt lat="47.18074" lon="5.94829">
        <ele>278</ele>
        <time>2012-04-05T12:55:43Z</time>
      </trkpt>
      <trkpt lat="47.18072" lon="5.9482">
        <ele>276.5</ele>
        <time>2012-04-05T12:55:50Z</time>
      </trkpt>
      <trkpt lat="47.18071" lon="5.94809">
        <ele>278.3</ele>
        <time>2012-04-05T12:55:56Z</time>
      </trkpt>
      <trkpt lat="47.18067" lon="5.94799">
        <ele>278.1</ele>
        <time>2012-04-05T12:56:02Z</time>
      </trkpt>
      <trkpt lat="47.18063" lon="5.9479">
        <ele>277.5</ele>
        <time>2012-04-05T12:56:06Z</time>
      </trkpt>
      <trkpt lat="47.18063" lon="5.9479">
        <ele>234.3</ele>
        <time>2012-04-05T12:56:17Z</time>
      </trkpt>
      <trkpt lat="47.18063" lon="5.9479">
        <ele>234.3</ele>
        <time>2012-04-05T12:56:36Z</time>
      </trkpt>
      <trkpt lat="47.18058" lon="5.94772">
        <ele>279.3</ele>
        <time>2012-04-05T12:56:39Z</time>
      </trkpt>
      <trkpt lat="47.18055" lon="5.94764">
        <ele>280.1</ele>
        <time>2012-04-05T12:56:42Z</time>
      </trkpt>
      <trkpt lat="47.18051" lon="5.94754">
        <ele>282.3</ele>
        <time>2012-04-05T12:56:47Z</time>
      </trkpt>
      <trkpt lat="47.18048" lon="5.94746">
        <ele>283.6</ele>
        <time>2012-04-05T12:56:51Z</time>
      </trkpt>
      <trkpt lat="47.18045" lon="5.94735">
        <ele>282.6</ele>
        <time>2012-04-05T12:56:57Z</time>
      </trkpt>
      <trkpt lat="47.18045" lon="5.94735">
        <ele>231.8</ele>
        <time>2012-04-05T12:57:08Z</time>
      </trkpt>
      <trkpt lat="47.18045" lon="5.94735">
        <ele>231.8</ele>
        <time>2012-04-05T12:57:09Z</time>
      </trkpt>
      <trkpt lat="47.18042" lon="5.94715">
        <ele>281.7</ele>
        <time>2012-04-05T12:57:16Z</time>
      </trkpt>
      <trkpt lat="47.18037" lon="5.9471">
        <ele>282.5</ele>
        <time>2012-04-05T12:57:21Z</time>
      </trkpt>
      <trkpt lat="47.18036" lon="5.94698">
        <ele>280.2</ele>
        <time>2012-04-05T12:57:28Z</time>
      </trkpt>
      <trkpt lat="47.18032" lon="5.94691">
        <ele>280.3</ele>
        <time>2012-04-05T12:57:33Z</time>
      </trkpt>
      <trkpt lat="47.18029" lon="5.94682">
        <ele>280.8</ele>
        <time>2012-04-05T12:57:38Z</time>
      </trkpt>
      <trkpt lat="47.18025" lon="5.94672">
        <ele>279.7</ele>
        <time>2012-04-05T12:57:43Z</time>
      </trkpt>
      <trkpt lat="47.1802" lon="5.94666">
        <ele>277.8</ele>
        <time>2012-04-05T12:57:51Z</time>
      </trkpt>
      <trkpt lat="47.18015" lon="5.94658">
        <ele>277.6</ele>
        <time>2012-04-05T12:57:56Z</time>
      </trkpt>
      <trkpt lat="47.1801" lon="5.94653">
        <ele>279.7</ele>
        <time>2012-04-05T12:58:00Z</time>
      </trkpt>
      <trkpt lat="47.18005" lon="5.94647">
        <ele>281.1</ele>
        <time>2012-04-05T12:58:05Z</time>
      </trkpt>
      <trkpt lat="47.18" lon="5.9464">
        <ele>281</ele>
        <time>2012-04-05T12:58:12Z</time>
      </trkpt>
      <trkpt lat="47.17995" lon="5.94633">
        <ele>281.1</ele>
        <time>2012-04-05T12:58:17Z</time>
      </trkpt>
      <trkpt lat="47.1799" lon="5.94626">
        <ele>281.3</ele>
        <time>2012-04-05T12:58:24Z</time>
      </trkpt>
      <trkpt lat="47.17984" lon="5.94622">
        <ele>281</ele>
        <time>2012-04-05T12:58:29Z</time>
      </trkpt>
      <trkpt lat="47.17977" lon="5.94617">
        <ele>281.5</ele>
        <time>2012-04-05T12:58:34Z</time>
      </trkpt>
      <trkpt lat="47.17971" lon="5.9461">
        <ele>281</ele>
        <time>2012-04-05T12:58:41Z</time>
      </trkpt>
      <trkpt lat="47.17965" lon="5.94603">
        <ele>280</ele>
        <time>2012-04-05T12:58:47Z</time>
      </trkpt>
      <trkpt lat="47.1796" lon="5.94597">
        <ele>277.1</ele>
        <time>2012-04-05T12:58:54Z</time>
      </trkpt>
      <trkpt lat="47.17955" lon="5.9459">
        <ele>275.3</ele>
        <time>2012-04-05T12:59:00Z</time>
      </trkpt>
      <trkpt lat="47.1795" lon="5.94583">
        <ele>276.2</ele>
        <time>2012-04-05T12:59:05Z</time>
      </trkpt>
      <trkpt lat="47.17946" lon="5.94577">
        <ele>276.4</ele>
        <time>2012-04-05T12:59:11Z</time>
      </trkpt>
      <trkpt lat="47.17941" lon="5.94568">
        <ele>278</ele>
        <time>2012-04-05T12:59:19Z</time>
      </trkpt>
      <trkpt lat="47.17933" lon="5.94565">
        <ele>277.8</ele>
        <time>2012-04-05T12:59:25Z</time>
      </trkpt>
      <trkpt lat="47.1793" lon="5.94556">
        <ele>279.2</ele>
        <time>2012-04-05T12:59:30Z</time>
      </trkpt>
      <trkpt lat="47.17928" lon="5.94547">
        <ele>279.5</ele>
        <time>2012-04-05T12:59:35Z</time>
      </trkpt>
      <trkpt lat="47.17922" lon="5.94541">
        <ele>279.9</ele>
        <time>2012-04-05T12:59:40Z</time>
      </trkpt>
      <trkpt lat="47.17917" lon="5.94536">
        <ele>279.2</ele>
        <time>2012-04-05T12:59:45Z</time>
      </trkpt>
      <trkpt lat="47.17912" lon="5.94529">
        <ele>279.4</ele>
        <time>2012-04-05T12:59:52Z</time>
      </trkpt>
      <trkpt lat="47.17911" lon="5.94519">
        <ele>278.1</ele>
        <time>2012-04-05T12:59:58Z</time>
      </trkpt>
      <trkpt lat="47.17906" lon="5.94513">
        <ele>277.8</ele>
        <time>2012-04-05T13:00:04Z</time>
      </trkpt>
      <trkpt lat="47.17906" lon="5.94513">
        <ele>231.4</ele>
        <time>2012-04-05T13:00:15Z</time>
      </trkpt>
      <trkpt lat="47.17906" lon="5.94513">
        <ele>231.4</ele>
        <time>2012-04-05T13:00:17Z</time>
      </trkpt>
      <trkpt lat="47.17897" lon="5.94499">
        <ele>275.6</ele>
        <time>2012-04-05T13:00:20Z</time>
      </trkpt>
      <trkpt lat="47.1789" lon="5.94494">
        <ele>274.4</ele>
        <time>2012-04-05T13:00:24Z</time>
      </trkpt>
      <trkpt lat="47.17884" lon="5.94489">
        <ele>276.1</ele>
        <time>2012-04-05T13:00:29Z</time>
      </trkpt>
      <trkpt lat="47.17879" lon="5.94483">
        <ele>276.2</ele>
        <time>2012-04-05T13:00:32Z</time>
      </trkpt>
      <trkpt lat="47.17875" lon="5.94475">
        <ele>274.8</ele>
        <time>2012-04-05T13:00:40Z</time>
      </trkpt>
      <trkpt lat="47.17872" lon="5.94466">
        <ele>275.2</ele>
        <time>2012-04-05T13:00:43Z</time>
      </trkpt>
      <trkpt lat="47.17866" lon="5.94461">
        <ele>275.5</ele>
        <time>2012-04-05T13:00:48Z</time>
      </trkpt>
      <trkpt lat="47.17861" lon="5.94455">
        <ele>276.8</ele>
        <time>2012-04-05T13:00:54Z</time>
      </trkpt>
      <trkpt lat="47.17854" lon="5.9445">
        <ele>276.7</ele>
        <time>2012-04-05T13:01:02Z</time>
      </trkpt>
      <trkpt lat="47.17849" lon="5.94445">
        <ele>276.9</ele>
        <time>2012-04-05T13:01:07Z</time>
      </trkpt>
      <trkpt lat="47.17846" lon="5.94436">
        <ele>278.3</ele>
        <time>2012-04-05T13:01:13Z</time>
      </trkpt>
      <trkpt lat="47.1784" lon="5.94431">
        <ele>279.9</ele>
        <time>2012-04-05T13:01:18Z</time>
      </trkpt>
      <trkpt lat="47.17832" lon="5.94426">
        <ele>280.2</ele>
        <time>2012-04-05T13:01:23Z</time>
      </trkpt>
      <trkpt lat="47.17826" lon="5.94422">
        <ele>278.9</ele>
        <time>2012-04-05T13:01:29Z</time>
      </trkpt>
      <trkpt lat="47.17826" lon="5.94422">
        <ele>231.1</ele>
        <time>2012-04-05T13:01:41Z</time>
      </trkpt>
      <trkpt lat="47.17826" lon="5.94422">
        <ele>231.1</ele>
        <time>2012-04-05T13:01:53Z</time>
      </trkpt>
      <trkpt lat="47.17826" lon="5.94422">
        <ele>231.1</ele>
        <time>2012-04-05T13:02:05Z</time>
      </trkpt>
      <trkpt lat="47.17826" lon="5.94422">
        <ele>231.1</ele>
        <time>2012-04-05T13:02:06Z</time>
      </trkpt>
      <trkpt lat="47.17826" lon="5.94422">
        <ele>231.1</ele>
        <time>2012-04-05T13:02:17Z</time>
      </trkpt>
      <trkpt lat="47.17826" lon="5.94422">
        <ele>231.1</ele>
        <time>2012-04-05T13:03:46Z</time>
      </trkpt>
      <trkpt lat="47.17826" lon="5.94422">
        <ele>231.1</ele>
        <time>2012-04-05T13:03:57Z</time>
      </trkpt>
      <trkpt lat="47.17826" lon="5.94422">
        <ele>231.1</ele>
        <time>2012-04-05T13:04:02Z</time>
      </trkpt>
      <trkpt lat="47.17804" lon="5.94411">
        <ele>282.9</ele>
        <time>2012-04-05T13:04:08Z</time>
      </trkpt>
      <trkpt lat="47.17799" lon="5.94404">
        <ele>279.9</ele>
        <time>2012-04-05T13:04:14Z</time>
      </trkpt>
      <trkpt lat="47.17792" lon="5.94398">
        <ele>280.3</ele>
        <time>2012-04-05T13:04:19Z</time>
      </trkpt>
      <trkpt lat="47.17787" lon="5.94392">
        <ele>279.8</ele>
        <time>2012-04-05T13:04:25Z</time>
      </trkpt>
      <trkpt lat="47.17781" lon="5.94387">
        <ele>278</ele>
        <time>2012-04-05T13:04:32Z</time>
      </trkpt>
      <trkpt lat="47.17775" lon="5.94381">
        <ele>278</ele>
        <time>2012-04-05T13:04:37Z</time>
      </trkpt>
      <trkpt lat="47.17769" lon="5.94377">
        <ele>277.8</ele>
        <time>2012-04-05T13:04:42Z</time>
      </trkpt>
      <trkpt lat="47.17762" lon="5.94374">
        <ele>278.6</ele>
        <time>2012-04-05T13:04:47Z</time>
      </trkpt>
      <trkpt lat="47.17756" lon="5.9437">
        <ele>280.2</ele>
        <time>2012-04-05T13:04:53Z</time>
      </trkpt>
      <trkpt lat="47.17749" lon="5.94365">
        <ele>278</ele>
        <time>2012-04-05T13:05:01Z</time>
      </trkpt>
      <trkpt lat="47.17742" lon="5.9436">
        <ele>278.1</ele>
        <time>2012-04-05T13:05:07Z</time>
      </trkpt>
      <trkpt lat="47.17736" lon="5.94358">
        <ele>278</ele>
        <time>2012-04-05T13:05:13Z</time>
      </trkpt>
      <trkpt lat="47.1773" lon="5.94354">
        <ele>278.2</ele>
        <time>2012-04-05T13:05:19Z</time>
      </trkpt>
      <trkpt lat="47.17723" lon="5.9435">
        <ele>276.9</ele>
        <time>2012-04-05T13:05:24Z</time>
      </trkpt>
      <trkpt lat="47.17716" lon="5.94348">
        <ele>277.7</ele>
        <time>2012-04-05T13:05:31Z</time>
      </trkpt>
      <trkpt lat="47.1771" lon="5.94342">
        <ele>278.8</ele>
        <time>2012-04-05T13:05:36Z</time>
      </trkpt>
      <trkpt lat="47.17703" lon="5.94338">
        <ele>279.3</ele>
        <time>2012-04-05T13:05:42Z</time>
      </trkpt>
      <trkpt lat="47.17698" lon="5.94332">
        <ele>278.4</ele>
        <time>2012-04-05T13:05:52Z</time>
      </trkpt>
      <trkpt lat="47.17698" lon="5.94332">
        <ele>231.7</ele>
        <time>2012-04-05T13:08:03Z</time>
      </trkpt>
      <trkpt lat="47.17698" lon="5.94332">
        <ele>231.7</ele>
        <time>2012-04-05T13:08:34Z</time>
      </trkpt>
      <trkpt lat="47.17563" lon="5.94217">
        <ele>278.4</ele>
        <time>2012-04-05T13:08:36Z</time>
      </trkpt>
      <trkpt lat="47.17553" lon="5.9421">
        <ele>278.7</ele>
        <time>2012-04-05T13:08:38Z</time>
      </trkpt>
      <trkpt lat="47.17548" lon="5.94201">
        <ele>278.7</ele>
        <time>2012-04-05T13:08:40Z</time>
      </trkpt>
      <trkpt lat="47.17546" lon="5.94192">
        <ele>279.6</ele>
        <time>2012-04-05T13:08:50Z</time>
      </trkpt>
      <trkpt lat="47.17546" lon="5.94192">
        <ele>229.3</ele>
        <time>2012-04-05T13:09:02Z</time>
      </trkpt>
      <trkpt lat="47.17546" lon="5.94192">
        <ele>229.3</ele>
        <time>2012-04-05T13:09:52Z</time>
      </trkpt>
      <trkpt lat="47.1755" lon="5.94171">
        <ele>278.7</ele>
        <time>2012-04-05T13:09:54Z</time>
      </trkpt>
      <trkpt lat="47.17548" lon="5.94156">
        <ele>278.4</ele>
        <time>2012-04-05T13:09:57Z</time>
      </trkpt>
      <trkpt lat="47.17539" lon="5.94138">
        <ele>278.3</ele>
        <time>2012-04-05T13:10:00Z</time>
      </trkpt>
      <trkpt lat="47.17527" lon="5.94124">
        <ele>278.4</ele>
        <time>2012-04-05T13:10:04Z</time>
      </trkpt>
      <trkpt lat="47.17521" lon="5.94117">
        <ele>278.6</ele>
        <time>2012-04-05T13:10:07Z</time>
      </trkpt>
      <trkpt lat="47.17516" lon="5.94112">
        <ele>278.7</ele>
        <time>2012-04-05T13:10:10Z</time>
      </trkpt>
      <trkpt lat="47.17516" lon="5.94112">
        <ele>229</ele>
        <time>2012-04-05T13:10:22Z</time>
      </trkpt>
      <trkpt lat="47.17516" lon="5.94112">
        <ele>229</ele>
        <time>2012-04-05T13:10:41Z</time>
      </trkpt>
      <trkpt lat="47.17511" lon="5.94095">
        <ele>278.4</ele>
        <time>2012-04-05T13:10:43Z</time>
      </trkpt>
      <trkpt lat="47.17503" lon="5.94088">
        <ele>278.3</ele>
        <time>2012-04-05T13:10:45Z</time>
      </trkpt>
      <trkpt lat="47.17497" lon="5.9408">
        <ele>278.5</ele>
        <time>2012-04-05T13:10:48Z</time>
      </trkpt>
      <trkpt lat="47.17492" lon="5.94073">
        <ele>278.8</ele>
        <time>2012-04-05T13:10:51Z</time>
      </trkpt>
      <trkpt lat="47.17488" lon="5.94064">
        <ele>278.4</ele>
        <time>2012-04-05T13:10:55Z</time>
      </trkpt>
      <trkpt lat="47.17488" lon="5.94064">
        <ele>229.2</ele>
        <time>2012-04-05T13:11:06Z</time>
      </trkpt>
      <trkpt lat="47.17488" lon="5.94064">
        <ele>229.2</ele>
        <time>2012-04-05T13:11:22Z</time>
      </trkpt>
      <trkpt lat="47.17485" lon="5.94044">
        <ele>276.9</ele>
        <time>2012-04-05T13:11:26Z</time>
      </trkpt>
      <trkpt lat="47.17485" lon="5.94034">
        <ele>276.8</ele>
        <time>2012-04-05T13:11:30Z</time>
      </trkpt>
      <trkpt lat="47.1748" lon="5.9403">
        <ele>276.8</ele>
        <time>2012-04-05T13:11:40Z</time>
      </trkpt>
      <trkpt lat="47.1748" lon="5.9403">
        <ele>229</ele>
        <time>2012-04-05T13:11:51Z</time>
      </trkpt>
      <trkpt lat="47.1748" lon="5.9403">
        <ele>229</ele>
        <time>2012-04-05T13:11:55Z</time>
      </trkpt>
      <trkpt lat="47.1749" lon="5.9401">
        <ele>275.1</ele>
        <time>2012-04-05T13:11:57Z</time>
      </trkpt>
      <trkpt lat="47.17484" lon="5.94003">
        <ele>274.2</ele>
        <time>2012-04-05T13:11:59Z</time>
      </trkpt>
      <trkpt lat="47.17477" lon="5.93994">
        <ele>273.4</ele>
        <time>2012-04-05T13:12:01Z</time>
      </trkpt>
      <trkpt lat="47.17473" lon="5.93985">
        <ele>273.4</ele>
        <time>2012-04-05T13:12:03Z</time>
      </trkpt>
      <trkpt lat="47.17469" lon="5.93976">
        <ele>273</ele>
        <time>2012-04-05T13:12:05Z</time>
      </trkpt>
      <trkpt lat="47.17458" lon="5.93964">
        <ele>273.1</ele>
        <time>2012-04-05T13:12:08Z</time>
      </trkpt>
      <trkpt lat="47.17456" lon="5.9395">
        <ele>273.7</ele>
        <time>2012-04-05T13:12:11Z</time>
      </trkpt>
      <trkpt lat="47.17451" lon="5.93942">
        <ele>273.3</ele>
        <time>2012-04-05T13:12:13Z</time>
      </trkpt>
      <trkpt lat="47.17445" lon="5.93936">
        <ele>273.3</ele>
        <time>2012-04-05T13:12:16Z</time>
      </trkpt>
      <trkpt lat="47.17442" lon="5.93928">
        <ele>273.3</ele>
        <time>2012-04-05T13:12:21Z</time>
      </trkpt>
      <trkpt lat="47.17442" lon="5.93928">
        <ele>229.1</ele>
        <time>2012-04-05T13:12:33Z</time>
      </trkpt>
      <trkpt lat="47.17442" lon="5.93928">
        <ele>229.1</ele>
        <time>2012-04-05T13:12:47Z</time>
      </trkpt>
      <trkpt lat="47.17444" lon="5.93909">
        <ele>272.6</ele>
        <time>2012-04-05T13:12:49Z</time>
      </trkpt>
      <trkpt lat="47.17441" lon="5.93895">
        <ele>271.9</ele>
        <time>2012-04-05T13:12:52Z</time>
      </trkpt>
      <trkpt lat="47.17439" lon="5.93884">
        <ele>270.8</ele>
        <time>2012-04-05T13:12:55Z</time>
      </trkpt>
      <trkpt lat="47.17438" lon="5.93873">
        <ele>269.6</ele>
        <time>2012-04-05T13:12:57Z</time>
      </trkpt>
      <trkpt lat="47.17434" lon="5.93863">
        <ele>269.1</ele>
        <time>2012-04-05T13:12:58Z</time>
      </trkpt>
      <trkpt lat="47.17426" lon="5.93854">
        <ele>269</ele>
        <time>2012-04-05T13:13:00Z</time>
      </trkpt>
      <trkpt lat="47.1742" lon="5.93846">
        <ele>268.8</ele>
        <time>2012-04-05T13:13:02Z</time>
      </trkpt>
      <trkpt lat="47.17418" lon="5.93837">
        <ele>269.6</ele>
        <time>2012-04-05T13:13:07Z</time>
      </trkpt>
      <trkpt lat="47.17418" lon="5.93837">
        <ele>228.2</ele>
        <time>2012-04-05T13:13:19Z</time>
      </trkpt>
      <trkpt lat="47.17418" lon="5.93837">
        <ele>228.2</ele>
        <time>2012-04-05T13:13:46Z</time>
      </trkpt>
      <trkpt lat="47.17417" lon="5.93814">
        <ele>266.9</ele>
        <time>2012-04-05T13:13:50Z</time>
      </trkpt>
      <trkpt lat="47.17415" lon="5.93805">
        <ele>266.1</ele>
        <time>2012-04-05T13:13:55Z</time>
      </trkpt>
      <trkpt lat="47.17415" lon="5.93805">
        <ele>228.2</ele>
        <time>2012-04-05T13:14:06Z</time>
      </trkpt>
      <trkpt lat="47.17415" lon="5.93805">
        <ele>228.2</ele>
        <time>2012-04-05T13:14:25Z</time>
      </trkpt>
      <trkpt lat="47.17428" lon="5.93781">
        <ele>268.9</ele>
        <time>2012-04-05T13:14:28Z</time>
      </trkpt>
      <trkpt lat="47.17437" lon="5.93775">
        <ele>280.3</ele>
        <time>2012-04-05T13:14:30Z</time>
      </trkpt>
      <trkpt lat="47.17433" lon="5.93762">
        <ele>287</ele>
        <time>2012-04-05T13:14:34Z</time>
      </trkpt>
      <trkpt lat="47.17433" lon="5.93762">
        <ele>228</ele>
        <time>2012-04-05T13:14:45Z</time>
      </trkpt>
      <trkpt lat="47.17433" lon="5.93762">
        <ele>228</ele>
        <time>2012-04-05T13:15:04Z</time>
      </trkpt>
      <trkpt lat="47.17423" lon="5.93738">
        <ele>286.8</ele>
        <time>2012-04-05T13:15:06Z</time>
      </trkpt>
      <trkpt lat="47.17417" lon="5.93732">
        <ele>285.4</ele>
        <time>2012-04-05T13:15:08Z</time>
      </trkpt>
      <trkpt lat="47.17417" lon="5.93722">
        <ele>285.6</ele>
        <time>2012-04-05T13:15:12Z</time>
      </trkpt>
      <trkpt lat="47.17417" lon="5.9371">
        <ele>287.4</ele>
        <time>2012-04-05T13:15:15Z</time>
      </trkpt>
      <trkpt lat="47.17412" lon="5.93704">
        <ele>287.4</ele>
        <time>2012-04-05T13:15:17Z</time>
      </trkpt>
      <trkpt lat="47.17406" lon="5.93702">
        <ele>287.4</ele>
        <time>2012-04-05T13:15:21Z</time>
      </trkpt>
      <trkpt lat="47.17406" lon="5.93702">
        <ele>228.6</ele>
        <time>2012-04-05T13:15:33Z</time>
      </trkpt>
      <trkpt lat="47.17406" lon="5.93702">
        <ele>228.6</ele>
        <time>2012-04-05T13:15:52Z</time>
      </trkpt>
      <trkpt lat="47.17407" lon="5.93685">
        <ele>286.6</ele>
        <time>2012-04-05T13:15:53Z</time>
      </trkpt>
      <trkpt lat="47.17404" lon="5.93673">
        <ele>284.7</ele>
        <time>2012-04-05T13:15:55Z</time>
      </trkpt>
      <trkpt lat="47.17401" lon="5.93663">
        <ele>283.6</ele>
        <time>2012-04-05T13:15:57Z</time>
      </trkpt>
      <trkpt lat="47.17396" lon="5.93655">
        <ele>284</ele>
        <time>2012-04-05T13:16:01Z</time>
      </trkpt>
      <trkpt lat="47.17391" lon="5.93648">
        <ele>284.6</ele>
        <time>2012-04-05T13:16:05Z</time>
      </trkpt>
      <trkpt lat="47.17385" lon="5.93644">
        <ele>284.7</ele>
        <time>2012-04-05T13:16:10Z</time>
      </trkpt>
      <trkpt lat="47.17385" lon="5.93644">
        <ele>229</ele>
        <time>2012-04-05T13:16:22Z</time>
      </trkpt>
      <trkpt lat="47.17385" lon="5.93644">
        <ele>229</ele>
        <time>2012-04-05T13:16:30Z</time>
      </trkpt>
      <trkpt lat="47.17383" lon="5.93625">
        <ele>281.1</ele>
        <time>2012-04-05T13:16:32Z</time>
      </trkpt>
      <trkpt lat="47.17381" lon="5.93615">
        <ele>280.9</ele>
        <time>2012-04-05T13:16:34Z</time>
      </trkpt>
      <trkpt lat="47.17375" lon="5.93608">
        <ele>281.3</ele>
        <time>2012-04-05T13:16:37Z</time>
      </trkpt>
      <trkpt lat="47.17367" lon="5.936">
        <ele>281.8</ele>
        <time>2012-04-05T13:16:41Z</time>
      </trkpt>
      <trkpt lat="47.17367" lon="5.936">
        <ele>228</ele>
        <time>2012-04-05T13:16:53Z</time>
      </trkpt>
      <trkpt lat="47.17367" lon="5.936">
        <ele>228</ele>
        <time>2012-04-05T13:17:15Z</time>
      </trkpt>
      <trkpt lat="47.17355" lon="5.9359">
        <ele>280.3</ele>
        <time>2012-04-05T13:17:16Z</time>
      </trkpt>
      <trkpt lat="47.17352" lon="5.93579">
        <ele>276.7</ele>
        <time>2012-04-05T13:17:18Z</time>
      </trkpt>
      <trkpt lat="47.17346" lon="5.93568">
        <ele>272.9</ele>
        <time>2012-04-05T13:17:20Z</time>
      </trkpt>
      <trkpt lat="47.1734" lon="5.9356">
        <ele>270.3</ele>
        <time>2012-04-05T13:17:23Z</time>
      </trkpt>
      <trkpt lat="47.17336" lon="5.93552">
        <ele>272.4</ele>
        <time>2012-04-05T13:17:27Z</time>
      </trkpt>
      <trkpt lat="47.17336" lon="5.93552">
        <ele>228.9</ele>
        <time>2012-04-05T13:17:38Z</time>
      </trkpt>
      <trkpt lat="47.17336" lon="5.93552">
        <ele>228.9</ele>
        <time>2012-04-05T13:17:45Z</time>
      </trkpt>
      <trkpt lat="47.17338" lon="5.9352">
        <ele>277.9</ele>
        <time>2012-04-05T13:17:56Z</time>
      </trkpt>
      <trkpt lat="47.1734" lon="5.93511">
        <ele>278.4</ele>
        <time>2012-04-05T13:17:57Z</time>
      </trkpt>
      <trkpt lat="47.17339" lon="5.93501">
        <ele>279.8</ele>
        <time>2012-04-05T13:18:04Z</time>
      </trkpt>
      <trkpt lat="47.17339" lon="5.93501">
        <ele>228.8</ele>
        <time>2012-04-05T13:18:16Z</time>
      </trkpt>
      <trkpt lat="47.17339" lon="5.93501">
        <ele>228.8</ele>
        <time>2012-04-05T13:19:06Z</time>
      </trkpt>
      <trkpt lat="47.17339" lon="5.93501">
        <ele>228.8</ele>
        <time>2012-04-05T13:19:18Z</time>
      </trkpt>
      <trkpt lat="47.17339" lon="5.93501">
        <ele>228.8</ele>
        <time>2012-04-05T13:19:36Z</time>
      </trkpt>
      <trkpt lat="47.17339" lon="5.93501">
        <ele>228.8</ele>
        <time>2012-04-05T13:19:47Z</time>
      </trkpt>
      <trkpt lat="47.17339" lon="5.93501">
        <ele>228.8</ele>
        <time>2012-04-05T13:20:47Z</time>
      </trkpt>
      <trkpt lat="47.17301" lon="5.93482">
        <ele>279.3</ele>
        <time>2012-04-05T13:20:50Z</time>
      </trkpt>
      <trkpt lat="47.17308" lon="5.93482">
        <ele>283.3</ele>
        <time>2012-04-05T13:20:54Z</time>
      </trkpt>
      <trkpt lat="47.17308" lon="5.93482">
        <ele>229</ele>
        <time>2012-04-05T13:21:06Z</time>
      </trkpt>
      <trkpt lat="47.17308" lon="5.93482">
        <ele>229</ele>
        <time>2012-04-05T13:21:51Z</time>
      </trkpt>
      <trkpt lat="47.17323" lon="5.93488">
        <ele>285.9</ele>
        <time>2012-04-05T13:21:53Z</time>
      </trkpt>
      <trkpt lat="47.17321" lon="5.93497">
        <ele>285.7</ele>
        <time>2012-04-05T13:21:55Z</time>
      </trkpt>
      <trkpt lat="47.17327" lon="5.93502">
        <ele>285.2</ele>
        <time>2012-04-05T13:21:57Z</time>
      </trkpt>
      <trkpt lat="47.17335" lon="5.93505">
        <ele>284.7</ele>
        <time>2012-04-05T13:21:59Z</time>
      </trkpt>
      <trkpt lat="47.17344" lon="5.93508">
        <ele>285.7</ele>
        <time>2012-04-05T13:22:03Z</time>
      </trkpt>
      <trkpt lat="47.17354" lon="5.93505">
        <ele>285.8</ele>
        <time>2012-04-05T13:22:04Z</time>
      </trkpt>
      <trkpt lat="47.1735" lon="5.93512">
        <ele>285.3</ele>
        <time>2012-04-05T13:22:07Z</time>
      </trkpt>
      <trkpt lat="47.17345" lon="5.93524">
        <ele>285.5</ele>
        <time>2012-04-05T13:22:13Z</time>
      </trkpt>
      <trkpt lat="47.17338" lon="5.93529">
        <ele>285.8</ele>
        <time>2012-04-05T13:22:15Z</time>
      </trkpt>
      <trkpt lat="47.17336" lon="5.93538">
        <ele>285.7</ele>
        <time>2012-04-05T13:22:19Z</time>
      </trkpt>
      <trkpt lat="47.17328" lon="5.93549">
        <ele>286.2</ele>
        <time>2012-04-05T13:22:25Z</time>
      </trkpt>
      <trkpt lat="47.17331" lon="5.93559">
        <ele>286.6</ele>
        <time>2012-04-05T13:22:29Z</time>
      </trkpt>
      <trkpt lat="47.17327" lon="5.93571">
        <ele>286.6</ele>
        <time>2012-04-05T13:22:32Z</time>
      </trkpt>
      <trkpt lat="47.17332" lon="5.93579">
        <ele>286.5</ele>
        <time>2012-04-05T13:22:36Z</time>
      </trkpt>
      <trkpt lat="47.17327" lon="5.93586">
        <ele>286.4</ele>
        <time>2012-04-05T13:22:43Z</time>
      </trkpt>
      <trkpt lat="47.17338" lon="5.93583">
        <ele>286.1</ele>
        <time>2012-04-05T13:22:45Z</time>
      </trkpt>
      <trkpt lat="47.17344" lon="5.93586">
        <ele>287</ele>
        <time>2012-04-05T13:22:48Z</time>
      </trkpt>
      <trkpt lat="47.1734" lon="5.93598">
        <ele>287.3</ele>
        <time>2012-04-05T13:22:54Z</time>
      </trkpt>
      <trkpt lat="47.1734" lon="5.93598">
        <ele>229.9</ele>
        <time>2012-04-05T13:23:05Z</time>
      </trkpt>
      <trkpt lat="47.1734" lon="5.93598">
        <ele>229.9</ele>
        <time>2012-04-05T13:23:17Z</time>
      </trkpt>
      <trkpt lat="47.1734" lon="5.93598">
        <ele>229.9</ele>
        <time>2012-04-05T13:23:28Z</time>
      </trkpt>
      <trkpt lat="47.1734" lon="5.93598">
        <ele>229.9</ele>
        <time>2012-04-05T13:24:54Z</time>
      </trkpt>
      <trkpt lat="47.17373" lon="5.93635">
        <ele>290.9</ele>
        <time>2012-04-05T13:24:57Z</time>
      </trkpt>
      <trkpt lat="47.17375" lon="5.93646">
        <ele>291.4</ele>
        <time>2012-04-05T13:24:59Z</time>
      </trkpt>
      <trkpt lat="47.17372" lon="5.93658">
        <ele>291.6</ele>
        <time>2012-04-05T13:25:01Z</time>
      </trkpt>
      <trkpt lat="47.17369" lon="5.93666">
        <ele>291.6</ele>
        <time>2012-04-05T13:25:03Z</time>
      </trkpt>
      <trkpt lat="47.17372" lon="5.93674">
        <ele>291.7</ele>
        <time>2012-04-05T13:25:07Z</time>
      </trkpt>
      <trkpt lat="47.17374" lon="5.93683">
        <ele>292.1</ele>
        <time>2012-04-05T13:25:11Z</time>
      </trkpt>
      <trkpt lat="47.17369" lon="5.93694">
        <ele>292.3</ele>
        <time>2012-04-05T13:25:16Z</time>
      </trkpt>
      <trkpt lat="47.17375" lon="5.93701">
        <ele>293.3</ele>
        <time>2012-04-05T13:25:20Z</time>
      </trkpt>
      <trkpt lat="47.17381" lon="5.93708">
        <ele>292.6</ele>
        <time>2012-04-05T13:25:23Z</time>
      </trkpt>
      <trkpt lat="47.17385" lon="5.93714">
        <ele>293.9</ele>
        <time>2012-04-05T13:25:29Z</time>
      </trkpt>
      <trkpt lat="47.17393" lon="5.93715">
        <ele>294.1</ele>
        <time>2012-04-05T13:25:32Z</time>
      </trkpt>
      <trkpt lat="47.17397" lon="5.93724">
        <ele>293.5</ele>
        <time>2012-04-05T13:25:37Z</time>
      </trkpt>
      <trkpt lat="47.17398" lon="5.93735">
        <ele>291.7</ele>
        <time>2012-04-05T13:25:45Z</time>
      </trkpt>
      <trkpt lat="47.17403" lon="5.93742">
        <ele>289.6</ele>
        <time>2012-04-05T13:25:49Z</time>
      </trkpt>
      <trkpt lat="47.17405" lon="5.93751">
        <ele>289.5</ele>
        <time>2012-04-05T13:25:56Z</time>
      </trkpt>
      <trkpt lat="47.17418" lon="5.93754">
        <ele>294.7</ele>
        <time>2012-04-05T13:25:58Z</time>
      </trkpt>
      <trkpt lat="47.17423" lon="5.93763">
        <ele>294.8</ele>
        <time>2012-04-05T13:26:03Z</time>
      </trkpt>
      <trkpt lat="47.17429" lon="5.93763">
        <ele>295</ele>
        <time>2012-04-05T13:26:05Z</time>
      </trkpt>
      <trkpt lat="47.17424" lon="5.93771">
        <ele>293.6</ele>
        <time>2012-04-05T13:26:08Z</time>
      </trkpt>
      <trkpt lat="47.17424" lon="5.93781">
        <ele>289.7</ele>
        <time>2012-04-05T13:26:17Z</time>
      </trkpt>
      <trkpt lat="47.17419" lon="5.93789">
        <ele>288.2</ele>
        <time>2012-04-05T13:26:21Z</time>
      </trkpt>
      <trkpt lat="47.17413" lon="5.93798">
        <ele>282.2</ele>
        <time>2012-04-05T13:26:28Z</time>
      </trkpt>
      <trkpt lat="47.17412" lon="5.93811">
        <ele>279.9</ele>
        <time>2012-04-05T13:26:36Z</time>
      </trkpt>
      <trkpt lat="47.17419" lon="5.93818">
        <ele>281.1</ele>
        <time>2012-04-05T13:26:41Z</time>
      </trkpt>
      <trkpt lat="47.17414" lon="5.9383">
        <ele>281.4</ele>
        <time>2012-04-05T13:26:45Z</time>
      </trkpt>
      <trkpt lat="47.17408" lon="5.93836">
        <ele>279.5</ele>
        <time>2012-04-05T13:26:47Z</time>
      </trkpt>
      <trkpt lat="47.17413" lon="5.93844">
        <ele>277</ele>
        <time>2012-04-05T13:26:52Z</time>
      </trkpt>
      <trkpt lat="47.1742" lon="5.93854">
        <ele>275.7</ele>
        <time>2012-04-05T13:26:57Z</time>
      </trkpt>
      <trkpt lat="47.17425" lon="5.9386">
        <ele>276.9</ele>
        <time>2012-04-05T13:27:01Z</time>
      </trkpt>
      <trkpt lat="47.17421" lon="5.93873">
        <ele>275.3</ele>
        <time>2012-04-05T13:27:07Z</time>
      </trkpt>
      <trkpt lat="47.17427" lon="5.93873">
        <ele>277.2</ele>
        <time>2012-04-05T13:27:08Z</time>
      </trkpt>
      <trkpt lat="47.17424" lon="5.93883">
        <ele>277.3</ele>
        <time>2012-04-05T13:27:15Z</time>
      </trkpt>
      <trkpt lat="47.17429" lon="5.93891">
        <ele>277.8</ele>
        <time>2012-04-05T13:27:20Z</time>
      </trkpt>
      <trkpt lat="47.17432" lon="5.93899">
        <ele>278.3</ele>
        <time>2012-04-05T13:27:26Z</time>
      </trkpt>
      <trkpt lat="47.17438" lon="5.93905">
        <ele>278.7</ele>
        <time>2012-04-05T13:27:31Z</time>
      </trkpt>
      <trkpt lat="47.17437" lon="5.93914">
        <ele>280.1</ele>
        <time>2012-04-05T13:27:36Z</time>
      </trkpt>
      <trkpt lat="47.17439" lon="5.93924">
        <ele>278.8</ele>
        <time>2012-04-05T13:27:43Z</time>
      </trkpt>
      <trkpt lat="47.17436" lon="5.93934">
        <ele>276.5</ele>
        <time>2012-04-05T13:27:49Z</time>
      </trkpt>
      <trkpt lat="47.17444" lon="5.93937">
        <ele>277.8</ele>
        <time>2012-04-05T13:27:51Z</time>
      </trkpt>
      <trkpt lat="47.17448" lon="5.93945">
        <ele>279.4</ele>
        <time>2012-04-05T13:27:57Z</time>
      </trkpt>
      <trkpt lat="47.17451" lon="5.93954">
        <ele>278.8</ele>
        <time>2012-04-05T13:28:02Z</time>
      </trkpt>
      <trkpt lat="47.17455" lon="5.93963">
        <ele>279.8</ele>
        <time>2012-04-05T13:28:07Z</time>
      </trkpt>
      <trkpt lat="47.17457" lon="5.93972">
        <ele>282.4</ele>
        <time>2012-04-05T13:28:12Z</time>
      </trkpt>
      <trkpt lat="47.17457" lon="5.93982">
        <ele>281</ele>
        <time>2012-04-05T13:28:16Z</time>
      </trkpt>
      <trkpt lat="47.17453" lon="5.9399">
        <ele>281</ele>
        <time>2012-04-05T13:28:21Z</time>
      </trkpt>
      <trkpt lat="47.17462" lon="5.93994">
        <ele>280.7</ele>
        <time>2012-04-05T13:28:26Z</time>
      </trkpt>
      <trkpt lat="47.17466" lon="5.94002">
        <ele>281.6</ele>
        <time>2012-04-05T13:28:31Z</time>
      </trkpt>
      <trkpt lat="47.17463" lon="5.94013">
        <ele>281.1</ele>
        <time>2012-04-05T13:28:38Z</time>
      </trkpt>
      <trkpt lat="47.17462" lon="5.94022">
        <ele>279</ele>
        <time>2012-04-05T13:28:44Z</time>
      </trkpt>
      <trkpt lat="47.1747" lon="5.94026">
        <ele>279</ele>
        <time>2012-04-05T13:28:47Z</time>
      </trkpt>
      <trkpt lat="47.17473" lon="5.94036">
        <ele>277.6</ele>
        <time>2012-04-05T13:28:53Z</time>
      </trkpt>
      <trkpt lat="47.17472" lon="5.94046">
        <ele>276.6</ele>
        <time>2012-04-05T13:28:58Z</time>
      </trkpt>
      <trkpt lat="47.17465" lon="5.94051">
        <ele>276.2</ele>
        <time>2012-04-05T13:29:00Z</time>
      </trkpt>
      <trkpt lat="47.17469" lon="5.94057">
        <ele>276.6</ele>
        <time>2012-04-05T13:29:03Z</time>
      </trkpt>
      <trkpt lat="47.17477" lon="5.94063">
        <ele>276</ele>
        <time>2012-04-05T13:29:09Z</time>
      </trkpt>
      <trkpt lat="47.17481" lon="5.9407">
        <ele>276.3</ele>
        <time>2012-04-05T13:29:15Z</time>
      </trkpt>
      <trkpt lat="47.17486" lon="5.94079">
        <ele>275.3</ele>
        <time>2012-04-05T13:29:20Z</time>
      </trkpt>
      <trkpt lat="47.17488" lon="5.94089">
        <ele>273.7</ele>
        <time>2012-04-05T13:29:28Z</time>
      </trkpt>
      <trkpt lat="47.17494" lon="5.94094">
        <ele>274.1</ele>
        <time>2012-04-05T13:29:32Z</time>
      </trkpt>
      <trkpt lat="47.17491" lon="5.94102">
        <ele>271.8</ele>
        <time>2012-04-05T13:29:35Z</time>
      </trkpt>
      <trkpt lat="47.17495" lon="5.9411">
        <ele>271.5</ele>
        <time>2012-04-05T13:29:41Z</time>
      </trkpt>
      <trkpt lat="47.17494" lon="5.94121">
        <ele>271.2</ele>
        <time>2012-04-05T13:29:48Z</time>
      </trkpt>
      <trkpt lat="47.17502" lon="5.94128">
        <ele>271.8</ele>
        <time>2012-04-05T13:29:52Z</time>
      </trkpt>
      <trkpt lat="47.17511" lon="5.94132">
        <ele>273.3</ele>
        <time>2012-04-05T13:29:59Z</time>
      </trkpt>
      <trkpt lat="47.17516" lon="5.94136">
        <ele>273.4</ele>
        <time>2012-04-05T13:30:03Z</time>
      </trkpt>
      <trkpt lat="47.17516" lon="5.94147">
        <ele>270.6</ele>
        <time>2012-04-05T13:30:09Z</time>
      </trkpt>
      <trkpt lat="47.17519" lon="5.94157">
        <ele>270.4</ele>
        <time>2012-04-05T13:30:15Z</time>
      </trkpt>
      <trkpt lat="47.1752" lon="5.94167">
        <ele>274.6</ele>
        <time>2012-04-05T13:30:23Z</time>
      </trkpt>
      <trkpt lat="47.17524" lon="5.94175">
        <ele>273.4</ele>
        <time>2012-04-05T13:30:31Z</time>
      </trkpt>
      <trkpt lat="47.17529" lon="5.94182">
        <ele>272.8</ele>
        <time>2012-04-05T13:30:36Z</time>
      </trkpt>
      <trkpt lat="47.17536" lon="5.94191">
        <ele>271.8</ele>
        <time>2012-04-05T13:30:44Z</time>
      </trkpt>
      <trkpt lat="47.17543" lon="5.94199">
        <ele>271.2</ele>
        <time>2012-04-05T13:30:49Z</time>
      </trkpt>
      <trkpt lat="47.17548" lon="5.94206">
        <ele>270.8</ele>
        <time>2012-04-05T13:30:54Z</time>
      </trkpt>
      <trkpt lat="47.17552" lon="5.94216">
        <ele>269.2</ele>
        <time>2012-04-05T13:31:01Z</time>
      </trkpt>
      <trkpt lat="47.17552" lon="5.94216">
        <ele>231.7</ele>
        <time>2012-04-05T13:31:13Z</time>
      </trkpt>
      <trkpt lat="47.17552" lon="5.94216">
        <ele>231.7</ele>
        <time>2012-04-05T13:32:28Z</time>
      </trkpt>
      <trkpt lat="47.17563" lon="5.94222">
        <ele>272.6</ele>
        <time>2012-04-05T13:32:30Z</time>
      </trkpt>
      <trkpt lat="47.17572" lon="5.94226">
        <ele>271.7</ele>
        <time>2012-04-05T13:32:34Z</time>
      </trkpt>
      <trkpt lat="47.17579" lon="5.94229">
        <ele>272.2</ele>
        <time>2012-04-05T13:32:38Z</time>
      </trkpt>
      <trkpt lat="47.17579" lon="5.94229">
        <ele>230.1</ele>
        <time>2012-04-05T13:32:50Z</time>
      </trkpt>
      <trkpt lat="47.17579" lon="5.94229">
        <ele>230.1</ele>
        <time>2012-04-05T13:32:53Z</time>
      </trkpt>
      <trkpt lat="47.17579" lon="5.94229">
        <ele>230.1</ele>
        <time>2012-04-05T13:33:05Z</time>
      </trkpt>
      <trkpt lat="47.17579" lon="5.94229">
        <ele>230.1</ele>
        <time>2012-04-05T13:33:10Z</time>
      </trkpt>
      <trkpt lat="47.17589" lon="5.94241">
        <ele>273.4</ele>
        <time>2012-04-05T13:33:12Z</time>
      </trkpt>
      <trkpt lat="47.17597" lon="5.94244">
        <ele>275.2</ele>
        <time>2012-04-05T13:33:17Z</time>
      </trkpt>
      <trkpt lat="47.17603" lon="5.94246">
        <ele>277.6</ele>
        <time>2012-04-05T13:33:20Z</time>
      </trkpt>
      <trkpt lat="47.17608" lon="5.94254">
        <ele>272.8</ele>
        <time>2012-04-05T13:33:30Z</time>
      </trkpt>
      <trkpt lat="47.17613" lon="5.94261">
        <ele>274.7</ele>
        <time>2012-04-05T13:33:35Z</time>
      </trkpt>
      <trkpt lat="47.17619" lon="5.94266">
        <ele>275.7</ele>
        <time>2012-04-05T13:33:46Z</time>
      </trkpt>
      <trkpt lat="47.17631" lon="5.9428">
        <ele>276.7</ele>
        <time>2012-04-05T13:33:57Z</time>
      </trkpt>
      <trkpt lat="47.17638" lon="5.94283">
        <ele>278.4</ele>
        <time>2012-04-05T13:34:03Z</time>
      </trkpt>
      <trkpt lat="47.17645" lon="5.94287">
        <ele>277.4</ele>
        <time>2012-04-05T13:34:12Z</time>
      </trkpt>
      <trkpt lat="47.1765" lon="5.94293">
        <ele>276.5</ele>
        <time>2012-04-05T13:34:19Z</time>
      </trkpt>
      <trkpt lat="47.1765" lon="5.94293">
        <ele>231.2</ele>
        <time>2012-04-05T13:34:30Z</time>
      </trkpt>
      <trkpt lat="47.1765" lon="5.94293">
        <ele>231.2</ele>
        <time>2012-04-05T13:34:41Z</time>
      </trkpt>
      <trkpt lat="47.17662" lon="5.94298">
        <ele>276.1</ele>
        <time>2012-04-05T13:34:43Z</time>
      </trkpt>
      <trkpt lat="47.1767" lon="5.94302">
        <ele>275.5</ele>
        <time>2012-04-05T13:34:49Z</time>
      </trkpt>
      <trkpt lat="47.17676" lon="5.94301">
        <ele>278.1</ele>
        <time>2012-04-05T13:34:55Z</time>
      </trkpt>
      <trkpt lat="47.17682" lon="5.94307">
        <ele>277.4</ele>
        <time>2012-04-05T13:34:59Z</time>
      </trkpt>
      <trkpt lat="47.17674" lon="5.94306">
        <ele>278.6</ele>
        <time>2012-04-05T13:35:04Z</time>
      </trkpt>
      <trkpt lat="47.17667" lon="5.94305">
        <ele>281.1</ele>
        <time>2012-04-05T13:35:08Z</time>
      </trkpt>
      <trkpt lat="47.17667" lon="5.94305">
        <ele>231.9</ele>
        <time>2012-04-05T13:35:20Z</time>
      </trkpt>
      <trkpt lat="47.17667" lon="5.94305">
        <ele>231.9</ele>
        <time>2012-04-05T13:35:21Z</time>
      </trkpt>
      <trkpt lat="47.17681" lon="5.94314">
        <ele>276.8</ele>
        <time>2012-04-05T13:35:24Z</time>
      </trkpt>
      <trkpt lat="47.17687" lon="5.94316">
        <ele>277.2</ele>
        <time>2012-04-05T13:35:28Z</time>
      </trkpt>
      <trkpt lat="47.17694" lon="5.94317">
        <ele>277.8</ele>
        <time>2012-04-05T13:35:32Z</time>
      </trkpt>
      <trkpt lat="47.17701" lon="5.94322">
        <ele>277.8</ele>
        <time>2012-04-05T13:35:39Z</time>
      </trkpt>
      <trkpt lat="47.17706" lon="5.94329">
        <ele>277.5</ele>
        <time>2012-04-05T13:35:45Z</time>
      </trkpt>
      <trkpt lat="47.17712" lon="5.94335">
        <ele>277.9</ele>
        <time>2012-04-05T13:35:52Z</time>
      </trkpt>
      <trkpt lat="47.17717" lon="5.94342">
        <ele>278</ele>
        <time>2012-04-05T13:35:59Z</time>
      </trkpt>
      <trkpt lat="47.17725" lon="5.9434">
        <ele>278.9</ele>
        <time>2012-04-05T13:36:04Z</time>
      </trkpt>
      <trkpt lat="47.17732" lon="5.94344">
        <ele>278.6</ele>
        <time>2012-04-05T13:36:09Z</time>
      </trkpt>
      <trkpt lat="47.17738" lon="5.94349">
        <ele>280.3</ele>
        <time>2012-04-05T13:36:16Z</time>
      </trkpt>
      <trkpt lat="47.17738" lon="5.94349">
        <ele>230.7</ele>
        <time>2012-04-05T13:36:27Z</time>
      </trkpt>
      <trkpt lat="47.17738" lon="5.94349">
        <ele>230.7</ele>
        <time>2012-04-05T13:37:00Z</time>
      </trkpt>
      <trkpt lat="47.17751" lon="5.9436">
        <ele>279.1</ele>
        <time>2012-04-05T13:37:07Z</time>
      </trkpt>
      <trkpt lat="47.17758" lon="5.94362">
        <ele>278.6</ele>
        <time>2012-04-05T13:37:11Z</time>
      </trkpt>
      <trkpt lat="47.17765" lon="5.94362">
        <ele>278.7</ele>
        <time>2012-04-05T13:37:15Z</time>
      </trkpt>
      <trkpt lat="47.17771" lon="5.94369">
        <ele>278.3</ele>
        <time>2012-04-05T13:37:20Z</time>
      </trkpt>
      <trkpt lat="47.17778" lon="5.94371">
        <ele>277.6</ele>
        <time>2012-04-05T13:37:26Z</time>
      </trkpt>
      <trkpt lat="47.17783" lon="5.94378">
        <ele>277</ele>
        <time>2012-04-05T13:37:33Z</time>
      </trkpt>
      <trkpt lat="47.1779" lon="5.94382">
        <ele>275.5</ele>
        <time>2012-04-05T13:37:38Z</time>
      </trkpt>
      <trkpt lat="47.17794" lon="5.9439">
        <ele>275.8</ele>
        <time>2012-04-05T13:37:46Z</time>
      </trkpt>
      <trkpt lat="47.17798" lon="5.94396">
        <ele>276.1</ele>
        <time>2012-04-05T13:37:55Z</time>
      </trkpt>
      <trkpt lat="47.17803" lon="5.94405">
        <ele>276</ele>
        <time>2012-04-05T13:38:01Z</time>
      </trkpt>
      <trkpt lat="47.1781" lon="5.9441">
        <ele>274.9</ele>
        <time>2012-04-05T13:38:06Z</time>
      </trkpt>
      <trkpt lat="47.17815" lon="5.94416">
        <ele>274.6</ele>
        <time>2012-04-05T13:38:13Z</time>
      </trkpt>
      <trkpt lat="47.17822" lon="5.94419">
        <ele>277.2</ele>
        <time>2012-04-05T13:38:18Z</time>
      </trkpt>
      <trkpt lat="47.17826" lon="5.94426">
        <ele>278.9</ele>
        <time>2012-04-05T13:38:26Z</time>
      </trkpt>
      <trkpt lat="47.17833" lon="5.94428">
        <ele>279.5</ele>
        <time>2012-04-05T13:38:31Z</time>
      </trkpt>
      <trkpt lat="47.17841" lon="5.94431">
        <ele>280</ele>
        <time>2012-04-05T13:38:39Z</time>
      </trkpt>
      <trkpt lat="47.17845" lon="5.9444">
        <ele>280.8</ele>
        <time>2012-04-05T13:38:50Z</time>
      </trkpt>
      <trkpt lat="47.17852" lon="5.94441">
        <ele>283.3</ele>
        <time>2012-04-05T13:38:56Z</time>
      </trkpt>
      <trkpt lat="47.17859" lon="5.94448">
        <ele>283.4</ele>
        <time>2012-04-05T13:39:01Z</time>
      </trkpt>
      <trkpt lat="47.17866" lon="5.94454">
        <ele>283</ele>
        <time>2012-04-05T13:39:05Z</time>
      </trkpt>
      <trkpt lat="47.17872" lon="5.94458">
        <ele>281.6</ele>
        <time>2012-04-05T13:39:10Z</time>
      </trkpt>
      <trkpt lat="47.17874" lon="5.94468">
        <ele>281.5</ele>
        <time>2012-04-05T13:39:16Z</time>
      </trkpt>
      <trkpt lat="47.17875" lon="5.94478">
        <ele>282.5</ele>
        <time>2012-04-05T13:39:22Z</time>
      </trkpt>
      <trkpt lat="47.17881" lon="5.94485">
        <ele>282.2</ele>
        <time>2012-04-05T13:39:28Z</time>
      </trkpt>
      <trkpt lat="47.17888" lon="5.94487">
        <ele>281.1</ele>
        <time>2012-04-05T13:39:37Z</time>
      </trkpt>
      <trkpt lat="47.17893" lon="5.94493">
        <ele>281.2</ele>
        <time>2012-04-05T13:39:44Z</time>
      </trkpt>
      <trkpt lat="47.17898" lon="5.945">
        <ele>280.3</ele>
        <time>2012-04-05T13:39:48Z</time>
      </trkpt>
      <trkpt lat="47.17902" lon="5.94508">
        <ele>280.8</ele>
        <time>2012-04-05T13:39:53Z</time>
      </trkpt>
      <trkpt lat="47.17908" lon="5.94514">
        <ele>279.6</ele>
        <time>2012-04-05T13:39:57Z</time>
      </trkpt>
      <trkpt lat="47.17914" lon="5.94519">
        <ele>280.6</ele>
        <time>2012-04-05T13:40:03Z</time>
      </trkpt>
      <trkpt lat="47.17913" lon="5.9453">
        <ele>279.5</ele>
        <time>2012-04-05T13:40:11Z</time>
      </trkpt>
      <trkpt lat="47.17915" lon="5.94542">
        <ele>279.3</ele>
        <time>2012-04-05T13:40:19Z</time>
      </trkpt>
      <trkpt lat="47.17923" lon="5.94543">
        <ele>279.4</ele>
        <time>2012-04-05T13:40:24Z</time>
      </trkpt>
      <trkpt lat="47.17925" lon="5.94553">
        <ele>279.8</ele>
        <time>2012-04-05T13:40:33Z</time>
      </trkpt>
      <trkpt lat="47.17931" lon="5.94559">
        <ele>280.9</ele>
        <time>2012-04-05T13:40:42Z</time>
      </trkpt>
      <trkpt lat="47.17931" lon="5.94559">
        <ele>232.7</ele>
        <time>2012-04-05T13:40:54Z</time>
      </trkpt>
      <trkpt lat="47.17931" lon="5.94559">
        <ele>232.7</ele>
        <time>2012-04-05T13:41:07Z</time>
      </trkpt>
      <trkpt lat="47.17944" lon="5.9457">
        <ele>282.6</ele>
        <time>2012-04-05T13:41:10Z</time>
      </trkpt>
      <trkpt lat="47.17948" lon="5.94579">
        <ele>283.1</ele>
        <time>2012-04-05T13:41:16Z</time>
      </trkpt>
      <trkpt lat="47.17955" lon="5.94583">
        <ele>285.2</ele>
        <time>2012-04-05T13:41:25Z</time>
      </trkpt>
      <trkpt lat="47.17959" lon="5.94591">
        <ele>284.5</ele>
        <time>2012-04-05T13:41:34Z</time>
      </trkpt>
      <trkpt lat="47.17964" lon="5.946">
        <ele>286.3</ele>
        <time>2012-04-05T13:41:41Z</time>
      </trkpt>
      <trkpt lat="47.1797" lon="5.94608">
        <ele>282.1</ele>
        <time>2012-04-05T13:41:43Z</time>
      </trkpt>
      <trkpt lat="47.17974" lon="5.94615">
        <ele>279</ele>
        <time>2012-04-05T13:41:48Z</time>
      </trkpt>
      <trkpt lat="47.1798" lon="5.9462">
        <ele>276.8</ele>
        <time>2012-04-05T13:41:52Z</time>
      </trkpt>
      <trkpt lat="47.17987" lon="5.94625">
        <ele>276.9</ele>
        <time>2012-04-05T13:41:57Z</time>
      </trkpt>
      <trkpt lat="47.17992" lon="5.9463">
        <ele>278.4</ele>
        <time>2012-04-05T13:42:02Z</time>
      </trkpt>
      <trkpt lat="47.17995" lon="5.94638">
        <ele>278.9</ele>
        <time>2012-04-05T13:42:08Z</time>
      </trkpt>
      <trkpt lat="47.17995" lon="5.94638">
        <ele>232.1</ele>
        <time>2012-04-05T13:42:20Z</time>
      </trkpt>
      <trkpt lat="47.17995" lon="5.94638">
        <ele>232.1</ele>
        <time>2012-04-05T13:42:28Z</time>
      </trkpt>
      <trkpt lat="47.18007" lon="5.9465">
        <ele>277.6</ele>
        <time>2012-04-05T13:42:34Z</time>
      </trkpt>
      <trkpt lat="47.1801" lon="5.94661">
        <ele>277.5</ele>
        <time>2012-04-05T13:42:40Z</time>
      </trkpt>
      <trkpt lat="47.18014" lon="5.94668">
        <ele>277.6</ele>
        <time>2012-04-05T13:42:47Z</time>
      </trkpt>
      <trkpt lat="47.18021" lon="5.94672">
        <ele>276.8</ele>
        <time>2012-04-05T13:42:54Z</time>
      </trkpt>
      <trkpt lat="47.18026" lon="5.94681">
        <ele>276.1</ele>
        <time>2012-04-05T13:42:59Z</time>
      </trkpt>
      <trkpt lat="47.1803" lon="5.94691">
        <ele>276.4</ele>
        <time>2012-04-05T13:43:06Z</time>
      </trkpt>
      <trkpt lat="47.18034" lon="5.947">
        <ele>276.7</ele>
        <time>2012-04-05T13:43:14Z</time>
      </trkpt>
      <trkpt lat="47.18036" lon="5.9471">
        <ele>277</ele>
        <time>2012-04-05T13:43:20Z</time>
      </trkpt>
      <trkpt lat="47.18037" lon="5.9472">
        <ele>275.3</ele>
        <time>2012-04-05T13:43:31Z</time>
      </trkpt>
      <trkpt lat="47.1804" lon="5.94728">
        <ele>275.2</ele>
        <time>2012-04-05T13:43:36Z</time>
      </trkpt>
      <trkpt lat="47.18044" lon="5.94736">
        <ele>278</ele>
        <time>2012-04-05T13:43:44Z</time>
      </trkpt>
      <trkpt lat="47.18046" lon="5.94746">
        <ele>277.5</ele>
        <time>2012-04-05T13:43:49Z</time>
      </trkpt>
      <trkpt lat="47.18048" lon="5.94758">
        <ele>278.6</ele>
        <time>2012-04-05T13:43:55Z</time>
      </trkpt>
      <trkpt lat="47.18051" lon="5.94766">
        <ele>279.2</ele>
        <time>2012-04-05T13:44:01Z</time>
      </trkpt>
      <trkpt lat="47.18054" lon="5.94776">
        <ele>279</ele>
        <time>2012-04-05T13:44:07Z</time>
      </trkpt>
      <trkpt lat="47.18054" lon="5.94776">
        <ele>234</ele>
        <time>2012-04-05T13:44:19Z</time>
      </trkpt>
      <trkpt lat="47.18054" lon="5.94776">
        <ele>234</ele>
        <time>2012-04-05T13:44:21Z</time>
      </trkpt>
      <trkpt lat="47.18063" lon="5.94791">
        <ele>280.2</ele>
        <time>2012-04-05T13:44:25Z</time>
      </trkpt>
      <trkpt lat="47.18059" lon="5.94799">
        <ele>279.6</ele>
        <time>2012-04-05T13:44:30Z</time>
      </trkpt>
      <trkpt lat="47.18059" lon="5.94799">
        <ele>234.7</ele>
        <time>2012-04-05T13:44:42Z</time>
      </trkpt>
      <trkpt lat="47.18059" lon="5.94799">
        <ele>234.7</ele>
        <time>2012-04-05T13:45:06Z</time>
      </trkpt>
      <trkpt lat="47.18066" lon="5.94817">
        <ele>279.3</ele>
        <time>2012-04-05T13:45:12Z</time>
      </trkpt>
      <trkpt lat="47.18067" lon="5.94826">
        <ele>280.2</ele>
        <time>2012-04-05T13:45:16Z</time>
      </trkpt>
      <trkpt lat="47.18067" lon="5.94826">
        <ele>234.6</ele>
        <time>2012-04-05T13:45:27Z</time>
      </trkpt>
      <trkpt lat="47.18067" lon="5.94826">
        <ele>234.6</ele>
        <time>2012-04-05T13:45:33Z</time>
      </trkpt>
      <trkpt lat="47.18076" lon="5.94842">
        <ele>279.6</ele>
        <time>2012-04-05T13:45:38Z</time>
      </trkpt>
      <trkpt lat="47.1808" lon="5.94853">
        <ele>279.1</ele>
        <time>2012-04-05T13:45:45Z</time>
      </trkpt>
      <trkpt lat="47.18079" lon="5.94862">
        <ele>279.5</ele>
        <time>2012-04-05T13:45:50Z</time>
      </trkpt>
      <trkpt lat="47.18081" lon="5.94872">
        <ele>279.5</ele>
        <time>2012-04-05T13:45:55Z</time>
      </trkpt>
      <trkpt lat="47.18081" lon="5.94882">
        <ele>280.5</ele>
        <time>2012-04-05T13:46:01Z</time>
      </trkpt>
      <trkpt lat="47.18081" lon="5.94893">
        <ele>281.7</ele>
        <time>2012-04-05T13:46:07Z</time>
      </trkpt>
      <trkpt lat="47.18086" lon="5.94904">
        <ele>284.8</ele>
        <time>2012-04-05T13:46:15Z</time>
      </trkpt>
      <trkpt lat="47.18092" lon="5.94909">
        <ele>286.1</ele>
        <time>2012-04-05T13:46:19Z</time>
      </trkpt>
      <trkpt lat="47.18091" lon="5.9492">
        <ele>285.4</ele>
        <time>2012-04-05T13:46:24Z</time>
      </trkpt>
      <trkpt lat="47.18095" lon="5.94927">
        <ele>284.4</ele>
        <time>2012-04-05T13:46:28Z</time>
      </trkpt>
      <trkpt lat="47.18094" lon="5.94938">
        <ele>284.1</ele>
        <time>2012-04-05T13:46:35Z</time>
      </trkpt>
      <trkpt lat="47.18096" lon="5.94949">
        <ele>286.1</ele>
        <time>2012-04-05T13:46:40Z</time>
      </trkpt>
      <trkpt lat="47.18098" lon="5.94958">
        <ele>287</ele>
        <time>2012-04-05T13:46:45Z</time>
      </trkpt>
      <trkpt lat="47.18103" lon="5.94963">
        <ele>287.5</ele>
        <time>2012-04-05T13:46:55Z</time>
      </trkpt>
      <trkpt lat="47.18104" lon="5.94975">
        <ele>285.1</ele>
        <time>2012-04-05T13:47:02Z</time>
      </trkpt>
      <trkpt lat="47.18108" lon="5.94985">
        <ele>286.3</ele>
        <time>2012-04-05T13:47:10Z</time>
      </trkpt>
      <trkpt lat="47.18114" lon="5.94993">
        <ele>286.4</ele>
        <time>2012-04-05T13:47:16Z</time>
      </trkpt>
      <trkpt lat="47.18117" lon="5.95002">
        <ele>285.9</ele>
        <time>2012-04-05T13:47:23Z</time>
      </trkpt>
      <trkpt lat="47.18117" lon="5.95002">
        <ele>234.9</ele>
        <time>2012-04-05T13:47:35Z</time>
      </trkpt>
      <trkpt lat="47.18117" lon="5.95002">
        <ele>234.9</ele>
        <time>2012-04-05T13:48:07Z</time>
      </trkpt>
      <trkpt lat="47.18117" lon="5.95002">
        <ele>234.9</ele>
        <time>2012-04-05T13:48:18Z</time>
      </trkpt>
      <trkpt lat="47.18117" lon="5.95002">
        <ele>234.9</ele>
        <time>2012-04-05T13:49:19Z</time>
      </trkpt>
      <trkpt lat="47.18125" lon="5.95029">
        <ele>288</ele>
        <time>2012-04-05T13:49:26Z</time>
      </trkpt>
      <trkpt lat="47.18125" lon="5.95029">
        <ele>233.5</ele>
        <time>2012-04-05T13:49:38Z</time>
      </trkpt>
      <trkpt lat="47.18125" lon="5.95029">
        <ele>233.5</ele>
        <time>2012-04-05T13:49:43Z</time>
      </trkpt>
      <trkpt lat="47.18125" lon="5.95029">
        <ele>233.5</ele>
        <time>2012-04-05T13:49:55Z</time>
      </trkpt>
      <trkpt lat="47.18125" lon="5.95029">
        <ele>233.5</ele>
        <time>2012-04-05T13:49:58Z</time>
      </trkpt>
      <trkpt lat="47.18129" lon="5.95057">
        <ele>286.8</ele>
        <time>2012-04-05T13:50:07Z</time>
      </trkpt>
      <trkpt lat="47.18132" lon="5.95066">
        <ele>286.7</ele>
        <time>2012-04-05T13:50:11Z</time>
      </trkpt>
      <trkpt lat="47.18132" lon="5.95076">
        <ele>283.9</ele>
        <time>2012-04-05T13:50:20Z</time>
      </trkpt>
      <trkpt lat="47.18136" lon="5.95084">
        <ele>281.9</ele>
        <time>2012-04-05T13:50:28Z</time>
      </trkpt>
      <trkpt lat="47.18138" lon="5.95094">
        <ele>281.9</ele>
        <time>2012-04-05T13:50:36Z</time>
      </trkpt>
      <trkpt lat="47.18141" lon="5.95103">
        <ele>281</ele>
        <time>2012-04-05T13:50:42Z</time>
      </trkpt>
      <trkpt lat="47.18141" lon="5.95103">
        <ele>234</ele>
        <time>2012-04-05T13:50:53Z</time>
      </trkpt>
      <trkpt lat="47.18141" lon="5.95103">
        <ele>234</ele>
        <time>2012-04-05T13:50:55Z</time>
      </trkpt>
      <trkpt lat="47.18142" lon="5.95123">
        <ele>283.9</ele>
        <time>2012-04-05T13:51:02Z</time>
      </trkpt>
      <trkpt lat="47.18146" lon="5.95133">
        <ele>283.4</ele>
        <time>2012-04-05T13:51:11Z</time>
      </trkpt>
      <trkpt lat="47.18149" lon="5.95141">
        <ele>282.2</ele>
        <time>2012-04-05T13:51:18Z</time>
      </trkpt>
      <trkpt lat="47.18151" lon="5.95151">
        <ele>282.6</ele>
        <time>2012-04-05T13:51:24Z</time>
      </trkpt>
      <trkpt lat="47.18153" lon="5.9516">
        <ele>282.6</ele>
        <time>2012-04-05T13:51:30Z</time>
      </trkpt>
      <trkpt lat="47.18154" lon="5.95169">
        <ele>281</ele>
        <time>2012-04-05T13:51:38Z</time>
      </trkpt>
      <trkpt lat="47.18155" lon="5.95178">
        <ele>281.5</ele>
        <time>2012-04-05T13:51:47Z</time>
      </trkpt>
      <trkpt lat="47.18158" lon="5.95187">
        <ele>281.2</ele>
        <time>2012-04-05T13:51:54Z</time>
      </trkpt>
      <trkpt lat="47.1816" lon="5.95198">
        <ele>282.1</ele>
        <time>2012-04-05T13:52:03Z</time>
      </trkpt>
      <trkpt lat="47.18161" lon="5.95208">
        <ele>282.2</ele>
        <time>2012-04-05T13:52:10Z</time>
      </trkpt>
      <trkpt lat="47.18166" lon="5.95217">
        <ele>283.6</ele>
        <time>2012-04-05T13:52:16Z</time>
      </trkpt>
      <trkpt lat="47.18168" lon="5.95225">
        <ele>286.2</ele>
        <time>2012-04-05T13:52:22Z</time>
      </trkpt>
      <trkpt lat="47.1817" lon="5.95235">
        <ele>286.3</ele>
        <time>2012-04-05T13:52:30Z</time>
      </trkpt>
      <trkpt lat="47.18173" lon="5.95243">
        <ele>287</ele>
        <time>2012-04-05T13:52:37Z</time>
      </trkpt>
      <trkpt lat="47.18176" lon="5.95253">
        <ele>285.7</ele>
        <time>2012-04-05T13:52:43Z</time>
      </trkpt>
      <trkpt lat="47.1818" lon="5.95262">
        <ele>286.6</ele>
        <time>2012-04-05T13:52:49Z</time>
      </trkpt>
      <trkpt lat="47.18184" lon="5.9527">
        <ele>285.3</ele>
        <time>2012-04-05T13:52:54Z</time>
      </trkpt>
      <trkpt lat="47.18183" lon="5.95279">
        <ele>284.4</ele>
        <time>2012-04-05T13:53:05Z</time>
      </trkpt>
      <trkpt lat="47.18183" lon="5.95279">
        <ele>233.6</ele>
        <time>2012-04-05T13:53:17Z</time>
      </trkpt>
      <trkpt lat="47.18183" lon="5.95279">
        <ele>233.6</ele>
        <time>2012-04-05T13:53:42Z</time>
      </trkpt>
      <trkpt lat="47.18185" lon="5.95296">
        <ele>283.3</ele>
        <time>2012-04-05T13:53:52Z</time>
      </trkpt>
      <trkpt lat="47.1819" lon="5.95303">
        <ele>281.7</ele>
        <time>2012-04-05T13:53:57Z</time>
      </trkpt>
      <trkpt lat="47.1819" lon="5.95303">
        <ele>233.8</ele>
        <time>2012-04-05T13:54:08Z</time>
      </trkpt>
      <trkpt lat="47.1819" lon="5.95303">
        <ele>233.8</ele>
        <time>2012-04-05T13:54:10Z</time>
      </trkpt>
      <trkpt lat="47.18194" lon="5.95323">
        <ele>282.2</ele>
        <time>2012-04-05T13:54:16Z</time>
      </trkpt>
      <trkpt lat="47.18194" lon="5.95333">
        <ele>281.9</ele>
        <time>2012-04-05T13:54:23Z</time>
      </trkpt>
      <trkpt lat="47.18199" lon="5.9534">
        <ele>282</ele>
        <time>2012-04-05T13:54:29Z</time>
      </trkpt>
      <trkpt lat="47.18197" lon="5.95349">
        <ele>281.4</ele>
        <time>2012-04-05T13:54:35Z</time>
      </trkpt>
      <trkpt lat="47.18197" lon="5.9536">
        <ele>281.3</ele>
        <time>2012-04-05T13:54:42Z</time>
      </trkpt>
      <trkpt lat="47.18201" lon="5.95369">
        <ele>281.3</ele>
        <time>2012-04-05T13:54:47Z</time>
      </trkpt>
      <trkpt lat="47.18207" lon="5.95368">
        <ele>281.9</ele>
        <time>2012-04-05T13:54:51Z</time>
      </trkpt>
      <trkpt lat="47.18207" lon="5.95368">
        <ele>234</ele>
        <time>2012-04-05T13:55:03Z</time>
      </trkpt>
      <trkpt lat="47.18207" lon="5.95368">
        <ele>234</ele>
        <time>2012-04-05T13:55:15Z</time>
      </trkpt>
      <trkpt lat="47.18207" lon="5.95368">
        <ele>234</ele>
        <time>2012-04-05T13:55:26Z</time>
      </trkpt>
      <trkpt lat="47.18207" lon="5.95368">
        <ele>234</ele>
        <time>2012-04-05T13:55:31Z</time>
      </trkpt>
      <trkpt lat="47.18207" lon="5.95368">
        <ele>234</ele>
        <time>2012-04-05T13:55:42Z</time>
      </trkpt>
      <trkpt lat="47.18207" lon="5.95368">
        <ele>234</ele>
        <time>2012-04-05T13:58:27Z</time>
      </trkpt>
      <trkpt lat="47.18209" lon="5.95403">
        <ele>281.4</ele>
        <time>2012-04-05T13:58:32Z</time>
      </trkpt>
      <trkpt lat="47.18214" lon="5.95412">
        <ele>282.4</ele>
        <time>2012-04-05T13:58:38Z</time>
      </trkpt>
      <trkpt lat="47.18218" lon="5.9542">
        <ele>283.5</ele>
        <time>2012-04-05T13:58:43Z</time>
      </trkpt>
      <trkpt lat="47.18218" lon="5.9542">
        <ele>234</ele>
        <time>2012-04-05T13:58:54Z</time>
      </trkpt>
      <trkpt lat="47.18218" lon="5.9542">
        <ele>234</ele>
        <time>2012-04-05T13:59:20Z</time>
      </trkpt>
      <trkpt lat="47.18224" lon="5.9544">
        <ele>286.9</ele>
        <time>2012-04-05T13:59:26Z</time>
      </trkpt>
      <trkpt lat="47.18229" lon="5.95448">
        <ele>284.7</ele>
        <time>2012-04-05T13:59:32Z</time>
      </trkpt>
      <trkpt lat="47.18229" lon="5.95459">
        <ele>284.5</ele>
        <time>2012-04-05T13:59:38Z</time>
      </trkpt>
      <trkpt lat="47.18228" lon="5.9547">
        <ele>284.4</ele>
        <time>2012-04-05T13:59:45Z</time>
      </trkpt>
      <trkpt lat="47.1823" lon="5.9548">
        <ele>284</ele>
        <time>2012-04-05T13:59:50Z</time>
      </trkpt>
      <trkpt lat="47.18235" lon="5.95487">
        <ele>282.2</ele>
        <time>2012-04-05T13:59:55Z</time>
      </trkpt>
      <trkpt lat="47.18235" lon="5.95496">
        <ele>282.6</ele>
        <time>2012-04-05T14:00:00Z</time>
      </trkpt>
      <trkpt lat="47.18238" lon="5.95505">
        <ele>282.7</ele>
        <time>2012-04-05T14:00:06Z</time>
      </trkpt>
      <trkpt lat="47.18241" lon="5.95514">
        <ele>282.4</ele>
        <time>2012-04-05T14:00:11Z</time>
      </trkpt>
      <trkpt lat="47.18242" lon="5.95524">
        <ele>282.2</ele>
        <time>2012-04-05T14:00:18Z</time>
      </trkpt>
      <trkpt lat="47.18246" lon="5.95532">
        <ele>283.1</ele>
        <time>2012-04-05T14:00:22Z</time>
      </trkpt>
      <trkpt lat="47.1825" lon="5.95541">
        <ele>283.8</ele>
        <time>2012-04-05T14:00:28Z</time>
      </trkpt>
      <trkpt lat="47.18253" lon="5.9555">
        <ele>283.7</ele>
        <time>2012-04-05T14:00:33Z</time>
      </trkpt>
      <trkpt lat="47.18252" lon="5.9556">
        <ele>282.5</ele>
        <time>2012-04-05T14:00:39Z</time>
      </trkpt>
      <trkpt lat="47.18253" lon="5.95571">
        <ele>283.4</ele>
        <time>2012-04-05T14:00:45Z</time>
      </trkpt>
      <trkpt lat="47.18254" lon="5.95581">
        <ele>283.5</ele>
        <time>2012-04-05T14:00:50Z</time>
      </trkpt>
      <trkpt lat="47.18257" lon="5.9559">
        <ele>283.9</ele>
        <time>2012-04-05T14:00:55Z</time>
      </trkpt>
      <trkpt lat="47.18261" lon="5.95598">
        <ele>283.1</ele>
        <time>2012-04-05T14:01:00Z</time>
      </trkpt>
      <trkpt lat="47.18264" lon="5.95607">
        <ele>282.7</ele>
        <time>2012-04-05T14:01:05Z</time>
      </trkpt>
      <trkpt lat="47.18265" lon="5.95618">
        <ele>282.7</ele>
        <time>2012-04-05T14:01:11Z</time>
      </trkpt>
      <trkpt lat="47.18271" lon="5.95623">
        <ele>281.6</ele>
        <time>2012-04-05T14:01:16Z</time>
      </trkpt>
      <trkpt lat="47.18278" lon="5.95629">
        <ele>281.5</ele>
        <time>2012-04-05T14:01:21Z</time>
      </trkpt>
      <trkpt lat="47.18284" lon="5.95634">
        <ele>283.5</ele>
        <time>2012-04-05T14:01:25Z</time>
      </trkpt>
      <trkpt lat="47.18286" lon="5.95644">
        <ele>283.1</ele>
        <time>2012-04-05T14:01:33Z</time>
      </trkpt>
      <trkpt lat="47.18289" lon="5.95654">
        <ele>283.4</ele>
        <time>2012-04-05T14:01:39Z</time>
      </trkpt>
      <trkpt lat="47.18294" lon="5.9566">
        <ele>284.7</ele>
        <time>2012-04-05T14:01:44Z</time>
      </trkpt>
      <trkpt lat="47.18299" lon="5.9567">
        <ele>285</ele>
        <time>2012-04-05T14:01:51Z</time>
      </trkpt>
      <trkpt lat="47.18303" lon="5.95678">
        <ele>284.8</ele>
        <time>2012-04-05T14:01:56Z</time>
      </trkpt>
      <trkpt lat="47.18309" lon="5.95686">
        <ele>284.5</ele>
        <time>2012-04-05T14:02:03Z</time>
      </trkpt>
      <trkpt lat="47.18312" lon="5.95695">
        <ele>284.3</ele>
        <time>2012-04-05T14:02:09Z</time>
      </trkpt>
      <trkpt lat="47.18317" lon="5.95703">
        <ele>285.1</ele>
        <time>2012-04-05T14:02:15Z</time>
      </trkpt>
      <trkpt lat="47.18322" lon="5.9571">
        <ele>284.8</ele>
        <time>2012-04-05T14:02:20Z</time>
      </trkpt>
      <trkpt lat="47.18327" lon="5.95718">
        <ele>285.1</ele>
        <time>2012-04-05T14:02:28Z</time>
      </trkpt>
      <trkpt lat="47.18331" lon="5.95726">
        <ele>285.6</ele>
        <time>2012-04-05T14:02:32Z</time>
      </trkpt>
      <trkpt lat="47.18335" lon="5.95734">
        <ele>286.4</ele>
        <time>2012-04-05T14:02:38Z</time>
      </trkpt>
      <trkpt lat="47.18339" lon="5.95743">
        <ele>285.1</ele>
        <time>2012-04-05T14:02:43Z</time>
      </trkpt>
      <trkpt lat="47.18341" lon="5.95751">
        <ele>285.8</ele>
        <time>2012-04-05T14:02:50Z</time>
      </trkpt>
      <trkpt lat="47.18344" lon="5.95761">
        <ele>283.5</ele>
        <time>2012-04-05T14:02:55Z</time>
      </trkpt>
      <trkpt lat="47.18351" lon="5.95766">
        <ele>284.2</ele>
        <time>2012-04-05T14:03:00Z</time>
      </trkpt>
      <trkpt lat="47.18351" lon="5.95777">
        <ele>282.7</ele>
        <time>2012-04-05T14:03:07Z</time>
      </trkpt>
      <trkpt lat="47.18356" lon="5.95784">
        <ele>283</ele>
        <time>2012-04-05T14:03:11Z</time>
      </trkpt>
      <trkpt lat="47.18361" lon="5.9579">
        <ele>284.4</ele>
        <time>2012-04-05T14:03:15Z</time>
      </trkpt>
      <trkpt lat="47.18368" lon="5.95794">
        <ele>285</ele>
        <time>2012-04-05T14:03:20Z</time>
      </trkpt>
      <trkpt lat="47.18373" lon="5.95801">
        <ele>285.6</ele>
        <time>2012-04-05T14:03:25Z</time>
      </trkpt>
      <trkpt lat="47.18377" lon="5.95808">
        <ele>287.6</ele>
        <time>2012-04-05T14:03:32Z</time>
      </trkpt>
      <trkpt lat="47.18381" lon="5.95815">
        <ele>286.8</ele>
        <time>2012-04-05T14:03:37Z</time>
      </trkpt>
      <trkpt lat="47.18385" lon="5.95823">
        <ele>287</ele>
        <time>2012-04-05T14:03:43Z</time>
      </trkpt>
      <trkpt lat="47.18391" lon="5.95829">
        <ele>285.2</ele>
        <time>2012-04-05T14:03:48Z</time>
      </trkpt>
      <trkpt lat="47.18395" lon="5.95837">
        <ele>284.6</ele>
        <time>2012-04-05T14:03:53Z</time>
      </trkpt>
      <trkpt lat="47.184" lon="5.95846">
        <ele>285.4</ele>
        <time>2012-04-05T14:03:58Z</time>
      </trkpt>
      <trkpt lat="47.18405" lon="5.95852">
        <ele>285.8</ele>
        <time>2012-04-05T14:04:04Z</time>
      </trkpt>
      <trkpt lat="47.18411" lon="5.95859">
        <ele>286.6</ele>
        <time>2012-04-05T14:04:11Z</time>
      </trkpt>
      <trkpt lat="47.18415" lon="5.95866">
        <ele>288.3</ele>
        <time>2012-04-05T14:04:17Z</time>
      </trkpt>
      <trkpt lat="47.18418" lon="5.95876">
        <ele>286.4</ele>
        <time>2012-04-05T14:04:22Z</time>
      </trkpt>
      <trkpt lat="47.18421" lon="5.95885">
        <ele>284.9</ele>
        <time>2012-04-05T14:04:27Z</time>
      </trkpt>
      <trkpt lat="47.18427" lon="5.9589">
        <ele>284.6</ele>
        <time>2012-04-05T14:04:34Z</time>
      </trkpt>
      <trkpt lat="47.18432" lon="5.95899">
        <ele>286</ele>
        <time>2012-04-05T14:04:39Z</time>
      </trkpt>
      <trkpt lat="47.18439" lon="5.95904">
        <ele>288.5</ele>
        <time>2012-04-05T14:04:45Z</time>
      </trkpt>
      <trkpt lat="47.18443" lon="5.95912">
        <ele>287.4</ele>
        <time>2012-04-05T14:04:49Z</time>
      </trkpt>
      <trkpt lat="47.18447" lon="5.9592">
        <ele>287.2</ele>
        <time>2012-04-05T14:04:54Z</time>
      </trkpt>
      <trkpt lat="47.18449" lon="5.9593">
        <ele>286.7</ele>
        <time>2012-04-05T14:05:02Z</time>
      </trkpt>
      <trkpt lat="47.18454" lon="5.95937">
        <ele>287.7</ele>
        <time>2012-04-05T14:05:09Z</time>
      </trkpt>
      <trkpt lat="47.18458" lon="5.95944">
        <ele>287.6</ele>
        <time>2012-04-05T14:05:14Z</time>
      </trkpt>
      <trkpt lat="47.18461" lon="5.95953">
        <ele>286.8</ele>
        <time>2012-04-05T14:05:19Z</time>
      </trkpt>
      <trkpt lat="47.18466" lon="5.9596">
        <ele>286.9</ele>
        <time>2012-04-05T14:05:24Z</time>
      </trkpt>
      <trkpt lat="47.18471" lon="5.95967">
        <ele>285.3</ele>
        <time>2012-04-05T14:05:31Z</time>
      </trkpt>
      <trkpt lat="47.18476" lon="5.95975">
        <ele>287.1</ele>
        <time>2012-04-05T14:05:37Z</time>
      </trkpt>
      <trkpt lat="47.18481" lon="5.95983">
        <ele>288.1</ele>
        <time>2012-04-05T14:05:42Z</time>
      </trkpt>
      <trkpt lat="47.18486" lon="5.9599">
        <ele>286.5</ele>
        <time>2012-04-05T14:05:48Z</time>
      </trkpt>
      <trkpt lat="47.18491" lon="5.95997">
        <ele>285.2</ele>
        <time>2012-04-05T14:05:54Z</time>
      </trkpt>
      <trkpt lat="47.18494" lon="5.96005">
        <ele>284.4</ele>
        <time>2012-04-05T14:06:03Z</time>
      </trkpt>
      <trkpt lat="47.18496" lon="5.96016">
        <ele>286.5</ele>
        <time>2012-04-05T14:06:08Z</time>
      </trkpt>
      <trkpt lat="47.185" lon="5.96023">
        <ele>285.5</ele>
        <time>2012-04-05T14:06:15Z</time>
      </trkpt>
      <trkpt lat="47.18506" lon="5.96029">
        <ele>284.6</ele>
        <time>2012-04-05T14:06:23Z</time>
      </trkpt>
      <trkpt lat="47.18511" lon="5.96037">
        <ele>284.1</ele>
        <time>2012-04-05T14:06:29Z</time>
      </trkpt>
      <trkpt lat="47.18515" lon="5.96045">
        <ele>283.9</ele>
        <time>2012-04-05T14:06:38Z</time>
      </trkpt>
      <trkpt lat="47.18522" lon="5.96048">
        <ele>282.6</ele>
        <time>2012-04-05T14:06:45Z</time>
      </trkpt>
      <trkpt lat="47.18526" lon="5.96054">
        <ele>282</ele>
        <time>2012-04-05T14:06:51Z</time>
      </trkpt>
      <trkpt lat="47.18531" lon="5.96062">
        <ele>282.6</ele>
        <time>2012-04-05T14:06:56Z</time>
      </trkpt>
      <trkpt lat="47.18536" lon="5.96068">
        <ele>283.4</ele>
        <time>2012-04-05T14:07:06Z</time>
      </trkpt>
      <trkpt lat="47.18536" lon="5.96068">
        <ele>234</ele>
        <time>2012-04-05T14:07:17Z</time>
      </trkpt>
      <trkpt lat="47.18536" lon="5.96068">
        <ele>234</ele>
        <time>2012-04-05T14:07:39Z</time>
      </trkpt>
      <trkpt lat="47.18535" lon="5.96087">
        <ele>282.2</ele>
        <time>2012-04-05T14:07:44Z</time>
      </trkpt>
      <trkpt lat="47.18539" lon="5.96094">
        <ele>282.4</ele>
        <time>2012-04-05T14:07:49Z</time>
      </trkpt>
      <trkpt lat="47.18545" lon="5.961">
        <ele>282.3</ele>
        <time>2012-04-05T14:07:54Z</time>
      </trkpt>
      <trkpt lat="47.1855" lon="5.9611">
        <ele>281.4</ele>
        <time>2012-04-05T14:07:58Z</time>
      </trkpt>
      <trkpt lat="47.18555" lon="5.96119">
        <ele>280.5</ele>
        <time>2012-04-05T14:08:06Z</time>
      </trkpt>
      <trkpt lat="47.18557" lon="5.96129">
        <ele>282.8</ele>
        <time>2012-04-05T14:08:12Z</time>
      </trkpt>
      <trkpt lat="47.18562" lon="5.96136">
        <ele>282.9</ele>
        <time>2012-04-05T14:08:17Z</time>
      </trkpt>
      <trkpt lat="47.18567" lon="5.96141">
        <ele>283.9</ele>
        <time>2012-04-05T14:08:23Z</time>
      </trkpt>
      <trkpt lat="47.18573" lon="5.96149">
        <ele>284.2</ele>
        <time>2012-04-05T14:08:29Z</time>
      </trkpt>
      <trkpt lat="47.18577" lon="5.96158">
        <ele>283.8</ele>
        <time>2012-04-05T14:08:35Z</time>
      </trkpt>
      <trkpt lat="47.18582" lon="5.96165">
        <ele>284.4</ele>
        <time>2012-04-05T14:08:42Z</time>
      </trkpt>
      <trkpt lat="47.18586" lon="5.96173">
        <ele>283.8</ele>
        <time>2012-04-05T14:08:46Z</time>
      </trkpt>
      <trkpt lat="47.18592" lon="5.96177">
        <ele>284.8</ele>
        <time>2012-04-05T14:08:52Z</time>
      </trkpt>
      <trkpt lat="47.18592" lon="5.96177">
        <ele>238</ele>
        <time>2012-04-05T14:09:04Z</time>
      </trkpt>
      <trkpt lat="47.18592" lon="5.96177">
        <ele>238</ele>
        <time>2012-04-05T14:09:36Z</time>
      </trkpt>
      <trkpt lat="47.18607" lon="5.96188">
        <ele>282.9</ele>
        <time>2012-04-05T14:09:40Z</time>
      </trkpt>
      <trkpt lat="47.18613" lon="5.96195">
        <ele>282.5</ele>
        <time>2012-04-05T14:09:46Z</time>
      </trkpt>
      <trkpt lat="47.18613" lon="5.96205">
        <ele>282.5</ele>
        <time>2012-04-05T14:09:53Z</time>
      </trkpt>
      <trkpt lat="47.18619" lon="5.96211">
        <ele>285.4</ele>
        <time>2012-04-05T14:09:58Z</time>
      </trkpt>
      <trkpt lat="47.18619" lon="5.96221">
        <ele>283.9</ele>
        <time>2012-04-05T14:10:03Z</time>
      </trkpt>
      <trkpt lat="47.18621" lon="5.9623">
        <ele>284.7</ele>
        <time>2012-04-05T14:10:08Z</time>
      </trkpt>
      <trkpt lat="47.18626" lon="5.96236">
        <ele>284.8</ele>
        <time>2012-04-05T14:10:13Z</time>
      </trkpt>
      <trkpt lat="47.18631" lon="5.96243">
        <ele>283.8</ele>
        <time>2012-04-05T14:10:18Z</time>
      </trkpt>
      <trkpt lat="47.18637" lon="5.9625">
        <ele>284</ele>
        <time>2012-04-05T14:10:24Z</time>
      </trkpt>
      <trkpt lat="47.18642" lon="5.96259">
        <ele>282.5</ele>
        <time>2012-04-05T14:10:28Z</time>
      </trkpt>
      <trkpt lat="47.18648" lon="5.96264">
        <ele>283.9</ele>
        <time>2012-04-05T14:10:33Z</time>
      </trkpt>
      <trkpt lat="47.18654" lon="5.9627">
        <ele>284.3</ele>
        <time>2012-04-05T14:10:39Z</time>
      </trkpt>
      <trkpt lat="47.1866" lon="5.96274">
        <ele>283.3</ele>
        <time>2012-04-05T14:10:44Z</time>
      </trkpt>
      <trkpt lat="47.18665" lon="5.96283">
        <ele>283.6</ele>
        <time>2012-04-05T14:10:50Z</time>
      </trkpt>
      <trkpt lat="47.18671" lon="5.96287">
        <ele>283.1</ele>
        <time>2012-04-05T14:10:56Z</time>
      </trkpt>
      <trkpt lat="47.18677" lon="5.96294">
        <ele>283</ele>
        <time>2012-04-05T14:11:01Z</time>
      </trkpt>
      <trkpt lat="47.18684" lon="5.963">
        <ele>283.7</ele>
        <time>2012-04-05T14:11:09Z</time>
      </trkpt>
      <trkpt lat="47.1869" lon="5.96305">
        <ele>283.5</ele>
        <time>2012-04-05T14:11:15Z</time>
      </trkpt>
      <trkpt lat="47.18694" lon="5.96314">
        <ele>283.3</ele>
        <time>2012-04-05T14:11:21Z</time>
      </trkpt>
      <trkpt lat="47.18701" lon="5.96316">
        <ele>282.1</ele>
        <time>2012-04-05T14:11:27Z</time>
      </trkpt>
      <trkpt lat="47.18707" lon="5.9632">
        <ele>281.9</ele>
        <time>2012-04-05T14:11:33Z</time>
      </trkpt>
      <trkpt lat="47.18713" lon="5.96326">
        <ele>283.3</ele>
        <time>2012-04-05T14:11:37Z</time>
      </trkpt>
      <trkpt lat="47.18719" lon="5.96332">
        <ele>282.7</ele>
        <time>2012-04-05T14:11:43Z</time>
      </trkpt>
      <trkpt lat="47.18724" lon="5.9634">
        <ele>282.3</ele>
        <time>2012-04-05T14:11:50Z</time>
      </trkpt>
      <trkpt lat="47.18731" lon="5.96342">
        <ele>282.6</ele>
        <time>2012-04-05T14:11:55Z</time>
      </trkpt>
      <trkpt lat="47.1874" lon="5.96348">
        <ele>282.8</ele>
        <time>2012-04-05T14:12:02Z</time>
      </trkpt>
      <trkpt lat="47.18747" lon="5.96351">
        <ele>285.5</ele>
        <time>2012-04-05T14:12:09Z</time>
      </trkpt>
      <trkpt lat="47.18753" lon="5.96356">
        <ele>284.7</ele>
        <time>2012-04-05T14:12:14Z</time>
      </trkpt>
      <trkpt lat="47.1876" lon="5.96361">
        <ele>283.4</ele>
        <time>2012-04-05T14:12:19Z</time>
      </trkpt>
      <trkpt lat="47.18766" lon="5.96367">
        <ele>283.1</ele>
        <time>2012-04-05T14:12:24Z</time>
      </trkpt>
      <trkpt lat="47.18773" lon="5.9637">
        <ele>284.1</ele>
        <time>2012-04-05T14:12:31Z</time>
      </trkpt>
      <trkpt lat="47.18779" lon="5.96375">
        <ele>283.7</ele>
        <time>2012-04-05T14:12:35Z</time>
      </trkpt>
      <trkpt lat="47.18784" lon="5.96382">
        <ele>281.3</ele>
        <time>2012-04-05T14:12:42Z</time>
      </trkpt>
      <trkpt lat="47.1879" lon="5.96387">
        <ele>280.7</ele>
        <time>2012-04-05T14:12:49Z</time>
      </trkpt>
      <trkpt lat="47.18796" lon="5.96388">
        <ele>281.3</ele>
        <time>2012-04-05T14:12:52Z</time>
      </trkpt>
      <trkpt lat="47.18803" lon="5.96389">
        <ele>281.5</ele>
        <time>2012-04-05T14:12:58Z</time>
      </trkpt>
      <trkpt lat="47.18809" lon="5.96392">
        <ele>281.3</ele>
        <time>2012-04-05T14:13:03Z</time>
      </trkpt>
      <trkpt lat="47.18817" lon="5.96396">
        <ele>280.9</ele>
        <time>2012-04-05T14:13:10Z</time>
      </trkpt>
      <trkpt lat="47.18824" lon="5.96398">
        <ele>282.6</ele>
        <time>2012-04-05T14:13:16Z</time>
      </trkpt>
      <trkpt lat="47.1883" lon="5.96401">
        <ele>283.8</ele>
        <time>2012-04-05T14:13:20Z</time>
      </trkpt>
      <trkpt lat="47.18837" lon="5.96401">
        <ele>285.5</ele>
        <time>2012-04-05T14:13:25Z</time>
      </trkpt>
      <trkpt lat="47.18842" lon="5.96408">
        <ele>284.5</ele>
        <time>2012-04-05T14:13:33Z</time>
      </trkpt>
      <trkpt lat="47.18851" lon="5.96407">
        <ele>285.4</ele>
        <time>2012-04-05T14:13:39Z</time>
      </trkpt>
      <trkpt lat="47.18857" lon="5.96412">
        <ele>285.5</ele>
        <time>2012-04-05T14:13:42Z</time>
      </trkpt>
      <trkpt lat="47.18864" lon="5.96415">
        <ele>284.5</ele>
        <time>2012-04-05T14:13:48Z</time>
      </trkpt>
      <trkpt lat="47.18871" lon="5.96415">
        <ele>284.4</ele>
        <time>2012-04-05T14:13:55Z</time>
      </trkpt>
      <trkpt lat="47.18878" lon="5.96418">
        <ele>283.7</ele>
        <time>2012-04-05T14:14:01Z</time>
      </trkpt>
      <trkpt lat="47.18884" lon="5.96421">
        <ele>284.6</ele>
        <time>2012-04-05T14:14:07Z</time>
      </trkpt>
      <trkpt lat="47.18891" lon="5.96422">
        <ele>284.5</ele>
        <time>2012-04-05T14:14:11Z</time>
      </trkpt>
      <trkpt lat="47.18897" lon="5.9642">
        <ele>283.8</ele>
        <time>2012-04-05T14:14:16Z</time>
      </trkpt>
      <trkpt lat="47.18904" lon="5.96421">
        <ele>285.3</ele>
        <time>2012-04-05T14:14:21Z</time>
      </trkpt>
      <trkpt lat="47.1891" lon="5.96425">
        <ele>284.1</ele>
        <time>2012-04-05T14:14:26Z</time>
      </trkpt>
      <trkpt lat="47.1891" lon="5.96425">
        <ele>234.4</ele>
        <time>2012-04-05T14:14:37Z</time>
      </trkpt>
      <trkpt lat="47.1891" lon="5.96425">
        <ele>234.4</ele>
        <time>2012-04-05T14:14:48Z</time>
      </trkpt>
      <trkpt lat="47.18927" lon="5.96429">
        <ele>283.2</ele>
        <time>2012-04-05T14:14:51Z</time>
      </trkpt>
      <trkpt lat="47.18933" lon="5.9643">
        <ele>282.4</ele>
        <time>2012-04-05T14:14:54Z</time>
      </trkpt>
      <trkpt lat="47.18933" lon="5.9643">
        <ele>234.2</ele>
        <time>2012-04-05T14:15:06Z</time>
      </trkpt>
      <trkpt lat="47.18933" lon="5.9643">
        <ele>234.2</ele>
        <time>2012-04-05T14:15:06Z</time>
      </trkpt>
      <trkpt lat="47.18949" lon="5.96431">
        <ele>282.7</ele>
        <time>2012-04-05T14:15:09Z</time>
      </trkpt>
      <trkpt lat="47.18957" lon="5.9643">
        <ele>283</ele>
        <time>2012-04-05T14:15:12Z</time>
      </trkpt>
      <trkpt lat="47.18963" lon="5.96432">
        <ele>281.1</ele>
        <time>2012-04-05T14:15:15Z</time>
      </trkpt>
      <trkpt lat="47.1897" lon="5.96431">
        <ele>281.9</ele>
        <time>2012-04-05T14:15:19Z</time>
      </trkpt>
      <trkpt lat="47.18977" lon="5.96433">
        <ele>281.5</ele>
        <time>2012-04-05T14:15:24Z</time>
      </trkpt>
      <trkpt lat="47.18984" lon="5.96433">
        <ele>282.2</ele>
        <time>2012-04-05T14:15:30Z</time>
      </trkpt>
      <trkpt lat="47.18991" lon="5.96433">
        <ele>283.6</ele>
        <time>2012-04-05T14:15:35Z</time>
      </trkpt>
      <trkpt lat="47.18998" lon="5.96434">
        <ele>284.2</ele>
        <time>2012-04-05T14:15:40Z</time>
      </trkpt>
      <trkpt lat="47.19004" lon="5.96429">
        <ele>285.7</ele>
        <time>2012-04-05T14:15:51Z</time>
      </trkpt>
      <trkpt lat="47.19011" lon="5.96426">
        <ele>287.6</ele>
        <time>2012-04-05T14:15:57Z</time>
      </trkpt>
      <trkpt lat="47.19021" lon="5.96422">
        <ele>287.6</ele>
        <time>2012-04-05T14:16:07Z</time>
      </trkpt>
      <trkpt lat="47.19028" lon="5.9642">
        <ele>288.1</ele>
        <time>2012-04-05T14:16:09Z</time>
      </trkpt>
      <trkpt lat="47.19034" lon="5.96416">
        <ele>287.1</ele>
        <time>2012-04-05T14:16:13Z</time>
      </trkpt>
      <trkpt lat="47.19042" lon="5.96416">
        <ele>283.7</ele>
        <time>2012-04-05T14:16:19Z</time>
      </trkpt>
      <trkpt lat="47.19048" lon="5.9641">
        <ele>283.6</ele>
        <time>2012-04-05T14:16:26Z</time>
      </trkpt>
      <trkpt lat="47.19054" lon="5.96405">
        <ele>283.7</ele>
        <time>2012-04-05T14:16:31Z</time>
      </trkpt>
      <trkpt lat="47.19061" lon="5.96401">
        <ele>286.8</ele>
        <time>2012-04-05T14:16:36Z</time>
      </trkpt>
      <trkpt lat="47.19068" lon="5.96399">
        <ele>288.1</ele>
        <time>2012-04-05T14:16:42Z</time>
      </trkpt>
      <trkpt lat="47.19074" lon="5.96394">
        <ele>290.1</ele>
        <time>2012-04-05T14:16:48Z</time>
      </trkpt>
      <trkpt lat="47.19081" lon="5.96388">
        <ele>290.6</ele>
        <time>2012-04-05T14:16:55Z</time>
      </trkpt>
      <trkpt lat="47.19085" lon="5.9638">
        <ele>290.6</ele>
        <time>2012-04-05T14:16:59Z</time>
      </trkpt>
      <trkpt lat="47.19092" lon="5.96378">
        <ele>292.7</ele>
        <time>2012-04-05T14:17:04Z</time>
      </trkpt>
      <trkpt lat="47.191" lon="5.96374">
        <ele>291.5</ele>
        <time>2012-04-05T14:17:10Z</time>
      </trkpt>
      <trkpt lat="47.19106" lon="5.96367">
        <ele>292.5</ele>
        <time>2012-04-05T14:17:16Z</time>
      </trkpt>
      <trkpt lat="47.19111" lon="5.9636">
        <ele>292</ele>
        <time>2012-04-05T14:17:23Z</time>
      </trkpt>
      <trkpt lat="47.19117" lon="5.96357">
        <ele>290.7</ele>
        <time>2012-04-05T14:17:27Z</time>
      </trkpt>
      <trkpt lat="47.19123" lon="5.96352">
        <ele>293.9</ele>
        <time>2012-04-05T14:17:33Z</time>
      </trkpt>
      <trkpt lat="47.19129" lon="5.96347">
        <ele>293.2</ele>
        <time>2012-04-05T14:17:37Z</time>
      </trkpt>
      <trkpt lat="47.19134" lon="5.96341">
        <ele>294</ele>
        <time>2012-04-05T14:17:44Z</time>
      </trkpt>
      <trkpt lat="47.1914" lon="5.96334">
        <ele>294.1</ele>
        <time>2012-04-05T14:17:50Z</time>
      </trkpt>
      <trkpt lat="47.19145" lon="5.96327">
        <ele>295.5</ele>
        <time>2012-04-05T14:17:55Z</time>
      </trkpt>
      <trkpt lat="47.19151" lon="5.96323">
        <ele>294.4</ele>
        <time>2012-04-05T14:18:00Z</time>
      </trkpt>
      <trkpt lat="47.19155" lon="5.96315">
        <ele>293.2</ele>
        <time>2012-04-05T14:18:07Z</time>
      </trkpt>
      <trkpt lat="47.1916" lon="5.96309">
        <ele>291.1</ele>
        <time>2012-04-05T14:18:14Z</time>
      </trkpt>
      <trkpt lat="47.19164" lon="5.963">
        <ele>291</ele>
        <time>2012-04-05T14:18:19Z</time>
      </trkpt>
      <trkpt lat="47.19169" lon="5.96293">
        <ele>290.4</ele>
        <time>2012-04-05T14:18:25Z</time>
      </trkpt>
      <trkpt lat="47.19174" lon="5.96287">
        <ele>290.6</ele>
        <time>2012-04-05T14:18:31Z</time>
      </trkpt>
      <trkpt lat="47.19179" lon="5.96278">
        <ele>292.4</ele>
        <time>2012-04-05T14:18:37Z</time>
      </trkpt>
      <trkpt lat="47.19185" lon="5.96274">
        <ele>292.4</ele>
        <time>2012-04-05T14:18:42Z</time>
      </trkpt>
      <trkpt lat="47.19191" lon="5.96268">
        <ele>291.3</ele>
        <time>2012-04-05T14:18:47Z</time>
      </trkpt>
      <trkpt lat="47.19193" lon="5.96256">
        <ele>290.2</ele>
        <time>2012-04-05T14:18:53Z</time>
      </trkpt>
      <trkpt lat="47.19195" lon="5.96247">
        <ele>293.4</ele>
        <time>2012-04-05T14:18:57Z</time>
      </trkpt>
      <trkpt lat="47.19202" lon="5.96242">
        <ele>294.8</ele>
        <time>2012-04-05T14:19:03Z</time>
      </trkpt>
      <trkpt lat="47.19208" lon="5.96237">
        <ele>293.9</ele>
        <time>2012-04-05T14:19:08Z</time>
      </trkpt>
      <trkpt lat="47.19212" lon="5.9623">
        <ele>292</ele>
        <time>2012-04-05T14:19:13Z</time>
      </trkpt>
      <trkpt lat="47.19217" lon="5.96223">
        <ele>291.2</ele>
        <time>2012-04-05T14:19:19Z</time>
      </trkpt>
      <trkpt lat="47.19219" lon="5.96212">
        <ele>293.1</ele>
        <time>2012-04-05T14:19:24Z</time>
      </trkpt>
      <trkpt lat="47.19223" lon="5.96202">
        <ele>293.5</ele>
        <time>2012-04-05T14:19:32Z</time>
      </trkpt>
      <trkpt lat="47.19225" lon="5.9619">
        <ele>295</ele>
        <time>2012-04-05T14:19:37Z</time>
      </trkpt>
      <trkpt lat="47.19231" lon="5.96184">
        <ele>297.7</ele>
        <time>2012-04-05T14:19:43Z</time>
      </trkpt>
      <trkpt lat="47.19237" lon="5.96177">
        <ele>299.5</ele>
        <time>2012-04-05T14:19:48Z</time>
      </trkpt>
      <trkpt lat="47.19241" lon="5.9617">
        <ele>300</ele>
        <time>2012-04-05T14:19:53Z</time>
      </trkpt>
      <trkpt lat="47.19247" lon="5.96163">
        <ele>299.6</ele>
        <time>2012-04-05T14:19:57Z</time>
      </trkpt>
      <trkpt lat="47.19249" lon="5.96154">
        <ele>299.9</ele>
        <time>2012-04-05T14:20:03Z</time>
      </trkpt>
      <trkpt lat="47.19255" lon="5.96147">
        <ele>300.4</ele>
        <time>2012-04-05T14:20:10Z</time>
      </trkpt>
      <trkpt lat="47.19257" lon="5.96137">
        <ele>302.9</ele>
        <time>2012-04-05T14:20:15Z</time>
      </trkpt>
      <trkpt lat="47.19262" lon="5.96129">
        <ele>304.1</ele>
        <time>2012-04-05T14:20:20Z</time>
      </trkpt>
      <trkpt lat="47.19268" lon="5.96127">
        <ele>302.2</ele>
        <time>2012-04-05T14:20:26Z</time>
      </trkpt>
      <trkpt lat="47.19274" lon="5.96121">
        <ele>299</ele>
        <time>2012-04-05T14:20:32Z</time>
      </trkpt>
      <trkpt lat="47.19279" lon="5.96114">
        <ele>296.8</ele>
        <time>2012-04-05T14:20:38Z</time>
      </trkpt>
      <trkpt lat="47.19284" lon="5.96108">
        <ele>295.6</ele>
        <time>2012-04-05T14:20:43Z</time>
      </trkpt>
      <trkpt lat="47.19287" lon="5.96098">
        <ele>296</ele>
        <time>2012-04-05T14:20:49Z</time>
      </trkpt>
      <trkpt lat="47.19291" lon="5.96089">
        <ele>294.7</ele>
        <time>2012-04-05T14:20:56Z</time>
      </trkpt>
      <trkpt lat="47.19297" lon="5.96084">
        <ele>292.7</ele>
        <time>2012-04-05T14:21:01Z</time>
      </trkpt>
      <trkpt lat="47.19303" lon="5.96077">
        <ele>292.7</ele>
        <time>2012-04-05T14:21:08Z</time>
      </trkpt>
      <trkpt lat="47.19305" lon="5.96067">
        <ele>293.4</ele>
        <time>2012-04-05T14:21:14Z</time>
      </trkpt>
      <trkpt lat="47.1931" lon="5.9606">
        <ele>293.3</ele>
        <time>2012-04-05T14:21:19Z</time>
      </trkpt>
      <trkpt lat="47.19315" lon="5.96054">
        <ele>293.5</ele>
        <time>2012-04-05T14:21:24Z</time>
      </trkpt>
      <trkpt lat="47.1932" lon="5.96047">
        <ele>294.3</ele>
        <time>2012-04-05T14:21:32Z</time>
      </trkpt>
      <trkpt lat="47.19326" lon="5.9604">
        <ele>293.1</ele>
        <time>2012-04-05T14:21:37Z</time>
      </trkpt>
      <trkpt lat="47.1933" lon="5.96032">
        <ele>293.4</ele>
        <time>2012-04-05T14:21:43Z</time>
      </trkpt>
      <trkpt lat="47.19336" lon="5.96024">
        <ele>294.5</ele>
        <time>2012-04-05T14:21:48Z</time>
      </trkpt>
      <trkpt lat="47.1934" lon="5.96015">
        <ele>295.5</ele>
        <time>2012-04-05T14:21:54Z</time>
      </trkpt>
      <trkpt lat="47.19346" lon="5.96008">
        <ele>297.1</ele>
        <time>2012-04-05T14:22:00Z</time>
      </trkpt>
      <trkpt lat="47.19351" lon="5.96002">
        <ele>297</ele>
        <time>2012-04-05T14:22:05Z</time>
      </trkpt>
      <trkpt lat="47.19356" lon="5.95994">
        <ele>297.1</ele>
        <time>2012-04-05T14:22:12Z</time>
      </trkpt>
      <trkpt lat="47.1936" lon="5.95985">
        <ele>297</ele>
        <time>2012-04-05T14:22:19Z</time>
      </trkpt>
      <trkpt lat="47.19365" lon="5.95978">
        <ele>296.7</ele>
        <time>2012-04-05T14:22:24Z</time>
      </trkpt>
      <trkpt lat="47.19371" lon="5.95973">
        <ele>295</ele>
        <time>2012-04-05T14:22:28Z</time>
      </trkpt>
      <trkpt lat="47.19376" lon="5.95966">
        <ele>293</ele>
        <time>2012-04-05T14:22:37Z</time>
      </trkpt>
      <trkpt lat="47.19381" lon="5.95961">
        <ele>293</ele>
        <time>2012-04-05T14:22:43Z</time>
      </trkpt>
      <trkpt lat="47.19388" lon="5.95958">
        <ele>293.2</ele>
        <time>2012-04-05T14:22:48Z</time>
      </trkpt>
      <trkpt lat="47.19394" lon="5.95951">
        <ele>292.8</ele>
        <time>2012-04-05T14:22:56Z</time>
      </trkpt>
      <trkpt lat="47.19397" lon="5.95943">
        <ele>289.9</ele>
        <time>2012-04-05T14:23:03Z</time>
      </trkpt>
      <trkpt lat="47.19404" lon="5.9594">
        <ele>291.3</ele>
        <time>2012-04-05T14:23:08Z</time>
      </trkpt>
      <trkpt lat="47.1941" lon="5.95937">
        <ele>293</ele>
        <time>2012-04-05T14:23:12Z</time>
      </trkpt>
      <trkpt lat="47.19416" lon="5.95933">
        <ele>294.3</ele>
        <time>2012-04-05T14:23:16Z</time>
      </trkpt>
      <trkpt lat="47.19422" lon="5.95931">
        <ele>294.2</ele>
        <time>2012-04-05T14:23:21Z</time>
      </trkpt>
      <trkpt lat="47.19428" lon="5.95926">
        <ele>292.9</ele>
        <time>2012-04-05T14:23:28Z</time>
      </trkpt>
      <trkpt lat="47.19436" lon="5.95924">
        <ele>293.4</ele>
        <time>2012-04-05T14:23:33Z</time>
      </trkpt>
      <trkpt lat="47.19443" lon="5.9592">
        <ele>293.7</ele>
        <time>2012-04-05T14:23:38Z</time>
      </trkpt>
      <trkpt lat="47.19449" lon="5.95922">
        <ele>293.1</ele>
        <time>2012-04-05T14:23:44Z</time>
      </trkpt>
      <trkpt lat="47.19456" lon="5.95921">
        <ele>293.2</ele>
        <time>2012-04-05T14:23:51Z</time>
      </trkpt>
      <trkpt lat="47.19462" lon="5.9592">
        <ele>293.5</ele>
        <time>2012-04-05T14:23:56Z</time>
      </trkpt>
      <trkpt lat="47.19469" lon="5.95919">
        <ele>291.4</ele>
        <time>2012-04-05T14:24:03Z</time>
      </trkpt>
      <trkpt lat="47.19476" lon="5.95918">
        <ele>290.1</ele>
        <time>2012-04-05T14:24:08Z</time>
      </trkpt>
      <trkpt lat="47.19483" lon="5.9592">
        <ele>288.9</ele>
        <time>2012-04-05T14:24:14Z</time>
      </trkpt>
      <trkpt lat="47.19489" lon="5.95918">
        <ele>289.1</ele>
        <time>2012-04-05T14:24:20Z</time>
      </trkpt>
      <trkpt lat="47.19497" lon="5.95918">
        <ele>290.3</ele>
        <time>2012-04-05T14:24:24Z</time>
      </trkpt>
      <trkpt lat="47.19503" lon="5.95918">
        <ele>292.4</ele>
        <time>2012-04-05T14:24:29Z</time>
      </trkpt>
      <trkpt lat="47.19509" lon="5.9592">
        <ele>293.2</ele>
        <time>2012-04-05T14:24:34Z</time>
      </trkpt>
      <trkpt lat="47.19516" lon="5.9592">
        <ele>293</ele>
        <time>2012-04-05T14:24:40Z</time>
      </trkpt>
      <trkpt lat="47.19523" lon="5.95919">
        <ele>293</ele>
        <time>2012-04-05T14:24:45Z</time>
      </trkpt>
      <trkpt lat="47.19529" lon="5.95921">
        <ele>292.4</ele>
        <time>2012-04-05T14:24:51Z</time>
      </trkpt>
      <trkpt lat="47.19535" lon="5.95924">
        <ele>292.9</ele>
        <time>2012-04-05T14:24:58Z</time>
      </trkpt>
      <trkpt lat="47.19541" lon="5.95925">
        <ele>292.6</ele>
        <time>2012-04-05T14:25:03Z</time>
      </trkpt>
      <trkpt lat="47.19549" lon="5.95924">
        <ele>291</ele>
        <time>2012-04-05T14:25:08Z</time>
      </trkpt>
      <trkpt lat="47.19556" lon="5.95927">
        <ele>289.8</ele>
        <time>2012-04-05T14:25:14Z</time>
      </trkpt>
      <trkpt lat="47.19563" lon="5.95926">
        <ele>289.3</ele>
        <time>2012-04-05T14:25:19Z</time>
      </trkpt>
      <trkpt lat="47.1957" lon="5.95926">
        <ele>288.5</ele>
        <time>2012-04-05T14:25:25Z</time>
      </trkpt>
      <trkpt lat="47.19578" lon="5.95924">
        <ele>288</ele>
        <time>2012-04-05T14:25:32Z</time>
      </trkpt>
      <trkpt lat="47.19585" lon="5.95926">
        <ele>287.6</ele>
        <time>2012-04-05T14:25:38Z</time>
      </trkpt>
      <trkpt lat="47.19593" lon="5.95926">
        <ele>288</ele>
        <time>2012-04-05T14:25:44Z</time>
      </trkpt>
      <trkpt lat="47.19601" lon="5.95927">
        <ele>289.1</ele>
        <time>2012-04-05T14:25:49Z</time>
      </trkpt>
      <trkpt lat="47.19607" lon="5.95928">
        <ele>287.2</ele>
        <time>2012-04-05T14:25:54Z</time>
      </trkpt>
      <trkpt lat="47.19614" lon="5.95928">
        <ele>288.1</ele>
        <time>2012-04-05T14:26:00Z</time>
      </trkpt>
      <trkpt lat="47.1962" lon="5.95927">
        <ele>286.8</ele>
        <time>2012-04-05T14:26:07Z</time>
      </trkpt>
      <trkpt lat="47.19627" lon="5.95927">
        <ele>285.4</ele>
        <time>2012-04-05T14:26:12Z</time>
      </trkpt>
      <trkpt lat="47.19633" lon="5.95928">
        <ele>287.7</ele>
        <time>2012-04-05T14:26:18Z</time>
      </trkpt>
      <trkpt lat="47.1964" lon="5.95929">
        <ele>288.3</ele>
        <time>2012-04-05T14:26:22Z</time>
      </trkpt>
      <trkpt lat="47.19646" lon="5.95928">
        <ele>287.4</ele>
        <time>2012-04-05T14:26:27Z</time>
      </trkpt>
      <trkpt lat="47.19654" lon="5.95929">
        <ele>287.4</ele>
        <time>2012-04-05T14:26:33Z</time>
      </trkpt>
      <trkpt lat="47.1966" lon="5.95931">
        <ele>288.8</ele>
        <time>2012-04-05T14:26:39Z</time>
      </trkpt>
      <trkpt lat="47.19667" lon="5.95929">
        <ele>291.3</ele>
        <time>2012-04-05T14:26:44Z</time>
      </trkpt>
      <trkpt lat="47.19674" lon="5.95931">
        <ele>291.1</ele>
        <time>2012-04-05T14:26:49Z</time>
      </trkpt>
      <trkpt lat="47.19681" lon="5.95932">
        <ele>291.3</ele>
        <time>2012-04-05T14:26:56Z</time>
      </trkpt>
      <trkpt lat="47.19689" lon="5.95933">
        <ele>290.6</ele>
        <time>2012-04-05T14:27:03Z</time>
      </trkpt>
      <trkpt lat="47.19697" lon="5.95932">
        <ele>289.5</ele>
        <time>2012-04-05T14:27:09Z</time>
      </trkpt>
      <trkpt lat="47.19704" lon="5.95934">
        <ele>289.1</ele>
        <time>2012-04-05T14:27:16Z</time>
      </trkpt>
      <trkpt lat="47.19711" lon="5.95933">
        <ele>289.9</ele>
        <time>2012-04-05T14:27:22Z</time>
      </trkpt>
      <trkpt lat="47.19719" lon="5.95932">
        <ele>289.9</ele>
        <time>2012-04-05T14:27:26Z</time>
      </trkpt>
      <trkpt lat="47.19725" lon="5.95934">
        <ele>287.6</ele>
        <time>2012-04-05T14:27:32Z</time>
      </trkpt>
      <trkpt lat="47.19733" lon="5.95935">
        <ele>287.9</ele>
        <time>2012-04-05T14:27:38Z</time>
      </trkpt>
      <trkpt lat="47.1974" lon="5.95936">
        <ele>288.9</ele>
        <time>2012-04-05T14:27:45Z</time>
      </trkpt>
      <trkpt lat="47.19746" lon="5.95939">
        <ele>289.1</ele>
        <time>2012-04-05T14:27:50Z</time>
      </trkpt>
      <trkpt lat="47.19753" lon="5.95939">
        <ele>288.7</ele>
        <time>2012-04-05T14:27:56Z</time>
      </trkpt>
      <trkpt lat="47.1976" lon="5.95939">
        <ele>287.8</ele>
        <time>2012-04-05T14:28:02Z</time>
      </trkpt>
      <trkpt lat="47.19767" lon="5.95937">
        <ele>286.5</ele>
        <time>2012-04-05T14:28:07Z</time>
      </trkpt>
      <trkpt lat="47.19775" lon="5.95937">
        <ele>288.2</ele>
        <time>2012-04-05T14:28:12Z</time>
      </trkpt>
      <trkpt lat="47.19782" lon="5.9594">
        <ele>288.2</ele>
        <time>2012-04-05T14:28:18Z</time>
      </trkpt>
      <trkpt lat="47.19789" lon="5.95944">
        <ele>289.4</ele>
        <time>2012-04-05T14:28:25Z</time>
      </trkpt>
      <trkpt lat="47.19795" lon="5.95946">
        <ele>290</ele>
        <time>2012-04-05T14:28:29Z</time>
      </trkpt>
      <trkpt lat="47.19802" lon="5.9595">
        <ele>289.4</ele>
        <time>2012-04-05T14:28:35Z</time>
      </trkpt>
      <trkpt lat="47.19807" lon="5.95956">
        <ele>287.7</ele>
        <time>2012-04-05T14:28:41Z</time>
      </trkpt>
      <trkpt lat="47.19814" lon="5.9596">
        <ele>287.9</ele>
        <time>2012-04-05T14:28:47Z</time>
      </trkpt>
      <trkpt lat="47.19818" lon="5.95967">
        <ele>287.5</ele>
        <time>2012-04-05T14:28:53Z</time>
      </trkpt>
      <trkpt lat="47.19822" lon="5.95975">
        <ele>285.9</ele>
        <time>2012-04-05T14:28:59Z</time>
      </trkpt>
      <trkpt lat="47.19827" lon="5.95982">
        <ele>285.9</ele>
        <time>2012-04-05T14:29:04Z</time>
      </trkpt>
      <trkpt lat="47.19832" lon="5.95989">
        <ele>286.3</ele>
        <time>2012-04-05T14:29:09Z</time>
      </trkpt>
      <trkpt lat="47.19834" lon="5.95998">
        <ele>285.5</ele>
        <time>2012-04-05T14:29:15Z</time>
      </trkpt>
      <trkpt lat="47.19841" lon="5.96005">
        <ele>285</ele>
        <time>2012-04-05T14:29:20Z</time>
      </trkpt>
      <trkpt lat="47.19846" lon="5.96012">
        <ele>285.5</ele>
        <time>2012-04-05T14:29:27Z</time>
      </trkpt>
      <trkpt lat="47.1985" lon="5.96021">
        <ele>285.7</ele>
        <time>2012-04-05T14:29:32Z</time>
      </trkpt>
      <trkpt lat="47.19856" lon="5.96028">
        <ele>286.5</ele>
        <time>2012-04-05T14:29:38Z</time>
      </trkpt>
      <trkpt lat="47.19859" lon="5.96036">
        <ele>286</ele>
        <time>2012-04-05T14:29:44Z</time>
      </trkpt>
      <trkpt lat="47.19862" lon="5.96045">
        <ele>286.5</ele>
        <time>2012-04-05T14:29:49Z</time>
      </trkpt>
      <trkpt lat="47.19866" lon="5.96053">
        <ele>286.9</ele>
        <time>2012-04-05T14:29:55Z</time>
      </trkpt>
      <trkpt lat="47.1987" lon="5.96061">
        <ele>288</ele>
        <time>2012-04-05T14:30:01Z</time>
      </trkpt>
      <trkpt lat="47.19875" lon="5.96069">
        <ele>288.8</ele>
        <time>2012-04-05T14:30:07Z</time>
      </trkpt>
      <trkpt lat="47.19879" lon="5.96077">
        <ele>288.8</ele>
        <time>2012-04-05T14:30:12Z</time>
      </trkpt>
      <trkpt lat="47.19885" lon="5.96084">
        <ele>290.9</ele>
        <time>2012-04-05T14:30:19Z</time>
      </trkpt>
      <trkpt lat="47.19889" lon="5.96094">
        <ele>293.6</ele>
        <time>2012-04-05T14:30:24Z</time>
      </trkpt>
      <trkpt lat="47.19893" lon="5.96101">
        <ele>292.7</ele>
        <time>2012-04-05T14:30:31Z</time>
      </trkpt>
      <trkpt lat="47.19896" lon="5.96112">
        <ele>292.6</ele>
        <time>2012-04-05T14:30:37Z</time>
      </trkpt>
      <trkpt lat="47.19899" lon="5.96121">
        <ele>292.9</ele>
        <time>2012-04-05T14:30:43Z</time>
      </trkpt>
      <trkpt lat="47.199" lon="5.96132">
        <ele>291.7</ele>
        <time>2012-04-05T14:30:49Z</time>
      </trkpt>
      <trkpt lat="47.19903" lon="5.96141">
        <ele>292.5</ele>
        <time>2012-04-05T14:30:53Z</time>
      </trkpt>
      <trkpt lat="47.19907" lon="5.96149">
        <ele>294.3</ele>
        <time>2012-04-05T14:31:04Z</time>
      </trkpt>
      <trkpt lat="47.19909" lon="5.96158">
        <ele>294.4</ele>
        <time>2012-04-05T14:31:09Z</time>
      </trkpt>
      <trkpt lat="47.19908" lon="5.96169">
        <ele>293.5</ele>
        <time>2012-04-05T14:31:14Z</time>
      </trkpt>
      <trkpt lat="47.19907" lon="5.9618">
        <ele>292.6</ele>
        <time>2012-04-05T14:31:19Z</time>
      </trkpt>
      <trkpt lat="47.19908" lon="5.9619">
        <ele>293.8</ele>
        <time>2012-04-05T14:31:24Z</time>
      </trkpt>
      <trkpt lat="47.19908" lon="5.96201">
        <ele>292.1</ele>
        <time>2012-04-05T14:31:30Z</time>
      </trkpt>
      <trkpt lat="47.19908" lon="5.96201">
        <ele>234.4</ele>
        <time>2012-04-05T14:31:42Z</time>
      </trkpt>
      <trkpt lat="47.19908" lon="5.96201">
        <ele>234.4</ele>
        <time>2012-04-05T14:31:46Z</time>
      </trkpt>
      <trkpt lat="47.19911" lon="5.96219">
        <ele>292</ele>
        <time>2012-04-05T14:31:54Z</time>
      </trkpt>
      <trkpt lat="47.19917" lon="5.96223">
        <ele>292.8</ele>
        <time>2012-04-05T14:31:58Z</time>
      </trkpt>
      <trkpt lat="47.19924" lon="5.96225">
        <ele>290.9</ele>
        <time>2012-04-05T14:32:05Z</time>
      </trkpt>
      <trkpt lat="47.1993" lon="5.96222">
        <ele>290.1</ele>
        <time>2012-04-05T14:32:08Z</time>
      </trkpt>
      <trkpt lat="47.19935" lon="5.96215">
        <ele>289.8</ele>
        <time>2012-04-05T14:32:14Z</time>
      </trkpt>
      <trkpt lat="47.19935" lon="5.96215">
        <ele>233</ele>
        <time>2012-04-05T14:32:26Z</time>
      </trkpt>
      <trkpt lat="47.19935" lon="5.96215">
        <ele>233</ele>
        <time>2012-04-05T14:32:27Z</time>
      </trkpt>
      <trkpt lat="47.19948" lon="5.96224">
        <ele>285.2</ele>
        <time>2012-04-05T14:32:33Z</time>
      </trkpt>
      <trkpt lat="47.19953" lon="5.96228">
        <ele>282.3</ele>
        <time>2012-04-05T14:32:39Z</time>
      </trkpt>
      <trkpt lat="47.19961" lon="5.96228">
        <ele>284</ele>
        <time>2012-04-05T14:32:45Z</time>
      </trkpt>
      <trkpt lat="47.19967" lon="5.96224">
        <ele>285.1</ele>
        <time>2012-04-05T14:32:51Z</time>
      </trkpt>
      <trkpt lat="47.19976" lon="5.96224">
        <ele>287.1</ele>
        <time>2012-04-05T14:32:56Z</time>
      </trkpt>
      <trkpt lat="47.19982" lon="5.96225">
        <ele>288</ele>
        <time>2012-04-05T14:33:03Z</time>
      </trkpt>
      <trkpt lat="47.19989" lon="5.96225">
        <ele>288.1</ele>
        <time>2012-04-05T14:33:09Z</time>
      </trkpt>
      <trkpt lat="47.19995" lon="5.96228">
        <ele>287.1</ele>
        <time>2012-04-05T14:33:18Z</time>
      </trkpt>
      <trkpt lat="47.20001" lon="5.96231">
        <ele>286.4</ele>
        <time>2012-04-05T14:33:25Z</time>
      </trkpt>
      <trkpt lat="47.20008" lon="5.96231">
        <ele>285.9</ele>
        <time>2012-04-05T14:33:31Z</time>
      </trkpt>
      <trkpt lat="47.20014" lon="5.96228">
        <ele>288.7</ele>
        <time>2012-04-05T14:33:36Z</time>
      </trkpt>
      <trkpt lat="47.20021" lon="5.96231">
        <ele>287.5</ele>
        <time>2012-04-05T14:33:41Z</time>
      </trkpt>
      <trkpt lat="47.20027" lon="5.9623">
        <ele>286.9</ele>
        <time>2012-04-05T14:33:46Z</time>
      </trkpt>
      <trkpt lat="47.20033" lon="5.9623">
        <ele>287.8</ele>
        <time>2012-04-05T14:33:51Z</time>
      </trkpt>
      <trkpt lat="47.20039" lon="5.96224">
        <ele>288</ele>
        <time>2012-04-05T14:33:58Z</time>
      </trkpt>
      <trkpt lat="47.20045" lon="5.96224">
        <ele>288.3</ele>
        <time>2012-04-05T14:34:09Z</time>
      </trkpt>
      <trkpt lat="47.20052" lon="5.96225">
        <ele>289.1</ele>
        <time>2012-04-05T14:34:17Z</time>
      </trkpt>
      <trkpt lat="47.20061" lon="5.96225">
        <ele>287.3</ele>
        <time>2012-04-05T14:34:25Z</time>
      </trkpt>
      <trkpt lat="47.20067" lon="5.96224">
        <ele>286.9</ele>
        <time>2012-04-05T14:34:30Z</time>
      </trkpt>
      <trkpt lat="47.20067" lon="5.96224">
        <ele>235.9</ele>
        <time>2012-04-05T14:34:41Z</time>
      </trkpt>
      <trkpt lat="47.20067" lon="5.96224">
        <ele>235.9</ele>
        <time>2012-04-05T14:34:45Z</time>
      </trkpt>
      <trkpt lat="47.20067" lon="5.96224">
        <ele>235.9</ele>
        <time>2012-04-05T14:34:57Z</time>
      </trkpt>
      <trkpt lat="47.20067" lon="5.96224">
        <ele>235.9</ele>
        <time>2012-04-05T14:35:05Z</time>
      </trkpt>
      <trkpt lat="47.2009" lon="5.96229">
        <ele>283.3</ele>
        <time>2012-04-05T14:35:06Z</time>
      </trkpt>
      <trkpt lat="47.20098" lon="5.96231">
        <ele>284.3</ele>
        <time>2012-04-05T14:35:09Z</time>
      </trkpt>
      <trkpt lat="47.20105" lon="5.9623">
        <ele>286.2</ele>
        <time>2012-04-05T14:35:13Z</time>
      </trkpt>
      <trkpt lat="47.20112" lon="5.96229">
        <ele>286.4</ele>
        <time>2012-04-05T14:35:18Z</time>
      </trkpt>
      <trkpt lat="47.20118" lon="5.96233">
        <ele>286.6</ele>
        <time>2012-04-05T14:35:21Z</time>
      </trkpt>
      <trkpt lat="47.20125" lon="5.96232">
        <ele>286.8</ele>
        <time>2012-04-05T14:35:25Z</time>
      </trkpt>
      <trkpt lat="47.20133" lon="5.96235">
        <ele>289.3</ele>
        <time>2012-04-05T14:35:30Z</time>
      </trkpt>
      <trkpt lat="47.20133" lon="5.96235">
        <ele>235.9</ele>
        <time>2012-04-05T14:35:42Z</time>
      </trkpt>
      <trkpt lat="47.20133" lon="5.96235">
        <ele>235.9</ele>
        <time>2012-04-05T14:35:42Z</time>
      </trkpt>
      <trkpt lat="47.20139" lon="5.96218">
        <ele>288.2</ele>
        <time>2012-04-05T14:35:49Z</time>
      </trkpt>
      <trkpt lat="47.20139" lon="5.96218">
        <ele>235.8</ele>
        <time>2012-04-05T14:36:01Z</time>
      </trkpt>
      <trkpt lat="47.20139" lon="5.96218">
        <ele>235.8</ele>
        <time>2012-04-05T14:36:12Z</time>
      </trkpt>
      <trkpt lat="47.20139" lon="5.96218">
        <ele>235.8</ele>
        <time>2012-04-05T14:36:24Z</time>
      </trkpt>
      <trkpt lat="47.20139" lon="5.96218">
        <ele>235.8</ele>
        <time>2012-04-05T14:36:24Z</time>
      </trkpt>
      <trkpt lat="47.20155" lon="5.96205">
        <ele>282.1</ele>
        <time>2012-04-05T14:36:27Z</time>
      </trkpt>
      <trkpt lat="47.20155" lon="5.96205">
        <ele>235.2</ele>
        <time>2012-04-05T14:36:39Z</time>
      </trkpt>
      <trkpt lat="47.20155" lon="5.96205">
        <ele>235.2</ele>
        <time>2012-04-05T14:36:55Z</time>
      </trkpt>
    </trkseg>
  </trk>
</gpx>